Observation data for Vigo Park on 11/17/2019      Previous  Date       Current Mesonet Observations  Soil Data  Daily Summary Page  Observations in Plain Language
KVP1 170600Z 28006KT 08/02 A2997 RMK A01 T00770020  RH  067%=      5-min Rain = 0
KVP1 170601Z 28006KT 08/02 A2997 RMK A01 T00770021  RH  068%=      5-min Rain = 0
KVP1 170602Z 28006KT 08/02 A2997 RMK A01 T00750020  RH  068%=      5-min Rain = 0
KVP1 170603Z 29006KT 07/02 A2997 RMK A01 T00740020  RH  068%=      5-min Rain = 0
KVP1 170604Z 29006KT 07/02 A2997 RMK A01 T00740020  RH  069%=      5-min Rain = 0
KVP1 170605Z 29006KT 07/02 A2997 RMK A01 T00730020  RH  069%=      5-min Rain = 0
KVP1 170606Z 29006KT 07/02 A2997 RMK A01 T00720020  RH  069%=      5-min Rain = 0
KVP1 170607Z 29006KT 07/02 A2997 RMK A01 T00720020  RH  070%=      5-min Rain = 0
KVP1 170608Z 29007KT 07/02 A2997 RMK A01 T00710019  RH  070%=      5-min Rain = 0
KVP1 170609Z 29007KT 07/02 A2997 RMK A01 T00700020  RH  070%=      5-min Rain = 0
KVP1 170610Z 28007KT 07/02 A2997 RMK A01 T00700020  RH  070%=      5-min Rain = 0
KVP1 170611Z 28007KT 07/02 A2998 RMK A01 T00700020  RH  070%=      5-min Rain = 0
KVP1 170612Z 28006KT 07/02 A2998 RMK A01 T00700020  RH  070%=      5-min Rain = 0
KVP1 170613Z 27005KT 07/02 A2998 RMK A01 T00690019  RH  070%=      5-min Rain = 0
KVP1 170614Z 27005KT 07/02 A2998 RMK A01 T00680019  RH  071%=      5-min Rain = 0
KVP1 170615Z 27005KT 07/02 A2998 RMK A01 T00670019  RH  071%=      5-min Rain = 0
KVP1 170616Z 28006KT 07/02 A2998 RMK A01 T00670019  RH  071%=      5-min Rain = 0
KVP1 170617Z 28006KT 07/02 A2998 RMK A01 T00660018  RH  072%=      5-min Rain = 0
KVP1 170618Z 28006KT 07/02 A2998 RMK A01 T00650018  RH  072%=      5-min Rain = 0
KVP1 170619Z 28007KT 06/02 A2998 RMK A01 T00640018  RH  072%=      5-min Rain = 0
KVP1 170620Z 27007KT 06/02 A2998 RMK A01 T00640018  RH  073%=      5-min Rain = 0
KVP1 170621Z 27007KT 06/02 A2999 RMK A01 T00630018  RH  073%=      5-min Rain = 0
KVP1 170622Z 27007KT 06/02 A2999 RMK A01 T00630018  RH  073%=      5-min Rain = 0
KVP1 170623Z 27007KT 06/02 A2999 RMK A01 T00630018  RH  073%=      5-min Rain = 0
KVP1 170624Z 27007KT 06/02 A2999 RMK A01 T00630018  RH  073%=      5-min Rain = 0
KVP1 170625Z 30008KT 06/02 A2999 RMK A01 T00630018  RH  073%=      5-min Rain = 0
KVP1 170626Z 32012KT 06/02 A2999 RMK A01 T00620018  RH  073%=      5-min Rain = 0
KVP1 170627Z 30010KT 06/02 A2999 RMK A01 T00620018  RH  073%=      5-min Rain = 0
KVP1 170628Z 31010KT 06/02 A2999 RMK A01 T00620017  RH  073%=      5-min Rain = 0
KVP1 170629Z 31012KT 06/02 A2999 RMK A01 T00610017  RH  073%=      5-min Rain = 0
KVP1 170630Z 31012KT 06/02 A2999 RMK A01 T00610016  RH  073%=      5-min Rain = 0
KVP1 170631Z 32012KT 06/02 A2999 RMK A01 T00610016  RH  072%=      5-min Rain = 0
KVP1 170632Z 32011KT 06/02 A2999 RMK A01 T00610015  RH  072%=      5-min Rain = 0
KVP1 170633Z 32010KT 06/02 A2999 RMK A01 T00610015  RH  072%=      5-min Rain = 0
KVP1 170634Z 33010KT 06/02 A2999 RMK A01 T00610015  RH  072%=      5-min Rain = 0
KVP1 170635Z 33010KT 06/02 A2999 RMK A01 T00610015  RH  072%=      5-min Rain = 0
KVP1 170636Z 33010KT 06/02 A2999 RMK A01 T00610015  RH  072%=      5-min Rain = 0
KVP1 170637Z 33009KT 06/01 A2999 RMK A01 T00610014  RH  072%=      5-min Rain = 0
KVP1 170638Z 32009KT 06/01 A2999 RMK A01 T00610014  RH  072%=      5-min Rain = 0
KVP1 170639Z 32008KT 06/01 A2999 RMK A01 T00600014  RH  072%=      5-min Rain = 0
KVP1 170640Z 32008KT 06/01 A2999 RMK A01 T00600014  RH  072%=      5-min Rain = 0
KVP1 170641Z 32007KT 06/01 A2999 RMK A01 T00590014  RH  073%=      5-min Rain = 0
KVP1 170642Z 32007KT 06/01 A2999 RMK A01 T00580014  RH  073%=      5-min Rain = 0
KVP1 170643Z 32007KT 06/01 A2999 RMK A01 T00580014  RH  073%=      5-min Rain = 0
KVP1 170644Z 31006KT 06/01 A2999 RMK A01 T00580014  RH  073%=      5-min Rain = 0
KVP1 170645Z 31005KT 06/01 A2999 RMK A01 T00580013  RH  073%=      5-min Rain = 0
KVP1 170646Z 30005KT 06/01 A2999 RMK A01 T00570013  RH  073%=      5-min Rain = 0
KVP1 170647Z 29004KT 06/01 A2999 RMK A01 T00570012  RH  073%=      5-min Rain = 0
KVP1 170648Z 27003KT 06/01 A2998 RMK A01 T00580012  RH  073%=      5-min Rain = 0
KVP1 170649Z 25003KT 06/01 A2998 RMK A01 T00580012  RH  072%=      5-min Rain = 0
KVP1 170650Z 24004KT 06/01 A2998 RMK A01 T00580012  RH  072%=      5-min Rain = 0
KVP1 170651Z 23004KT 06/01 A2998 RMK A01 T00580011  RH  072%=      5-min Rain = 0
KVP1 170652Z 23005KT 06/01 A2998 RMK A01 T00570011  RH  072%=      5-min Rain = 0
KVP1 170653Z 23005KT 06/01 A2998 RMK A01 T00560011  RH  073%=      5-min Rain = 0
KVP1 170654Z 23005KT 06/01 A2999 RMK A01 T00560011  RH  073%=      5-min Rain = 0
KVP1 170655Z 23005KT 06/01 A2999 RMK A01 T00560011  RH  073%=      5-min Rain = 0
KVP1 170656Z 23005KT 06/01 A2999 RMK A01 T00550011  RH  073%=      5-min Rain = 0
KVP1 170657Z 24004KT 06/01 A2999 RMK A01 T00550011  RH  073%=      5-min Rain = 0
KVP1 170658Z 25005KT 06/01 A2999 RMK A01 T00550011  RH  073%=      5-min Rain = 0
KVP1 170659Z 25006KT 06/01 A2999 RMK A01 T00550011  RH  073%=      5-min Rain = 0
KVP1 170700Z 24006KT 06/01 A2999 RMK A01 T00550011  RH  073%=      5-min Rain = 0
KVP1 170701Z 25007KT 06/01 A2999 RMK A01 T00550011  RH  073%=      5-min Rain = 0
KVP1 170702Z 25006KT 06/01 A2999 RMK A01 T00560011  RH  073%=      5-min Rain = 0
KVP1 170703Z 25006KT 06/01 A2999 RMK A01 T00550011  RH  073%=      5-min Rain = 0
KVP1 170704Z 25005KT 06/01 A2999 RMK A01 T00550011  RH  073%=      5-min Rain = 0
KVP1 170705Z 25006KT 06/01 A2999 RMK A01 T00550011  RH  073%=      5-min Rain = 0
KVP1 170706Z 26006KT 05/01 A2999 RMK A01 T00540011  RH  073%=      5-min Rain = 0
KVP1 170707Z 26006KT 05/01 A2999 RMK A01 T00540011  RH  074%=      5-min Rain = 0
KVP1 170708Z 26006KT 05/01 A30 RMK A01 T00540011  RH  074%=      5-min Rain = 0
KVP1 170709Z 25006KT 05/01 A30 RMK A01 T00540011  RH  074%=      5-min Rain = 0
KVP1 170710Z 25006KT 06/01 A30 RMK A01 T00550011  RH  073%=      5-min Rain = 0
KVP1 170711Z 25006KT 05/01 A30 RMK A01 T00540010  RH  073%=      5-min Rain = 0
KVP1 170712Z 25005KT 06/01 A30 RMK A01 T00550011  RH  073%=      5-min Rain = 0
KVP1 170713Z 25004KT 05/01 A30 RMK A01 T00540011  RH  073%=      5-min Rain = 0
KVP1 170714Z 25004KT 05/01 A30 RMK A01 T00540011  RH  073%=      5-min Rain = 0
KVP1 170715Z 25004KT 05/01 A30 RMK A01 T00540010  RH  073%=      5-min Rain = 0
KVP1 170716Z 25003KT 05/01 A30 RMK A01 T00540010  RH  073%=      5-min Rain = 0
KVP1 170717Z 25003KT 05/01 A30 RMK A01 T00540010  RH  073%=      5-min Rain = 0
KVP1 170718Z 25003KT 05/01 A30 RMK A01 T00540010  RH  073%=      5-min Rain = 0
KVP1 170719Z 26003KT 05/01 A30 RMK A01 T00540010  RH  073%=      5-min Rain = 0
KVP1 170720Z 27003KT 05/01 A30 RMK A01 T00530009  RH  073%=      5-min Rain = 0
KVP1 170721Z 27003KT 05/01 A30 RMK A01 T00520009  RH  074%=      5-min Rain = 0
KVP1 170722Z 28004KT 05/01 A30 RMK A01 T00520009  RH  074%=      5-min Rain = 0
KVP1 170723Z 28005KT 05/01 A30 RMK A01 T00520009  RH  074%=      5-min Rain = 0
KVP1 170724Z 29006KT 05/01 A30 RMK A01 T00510008  RH  074%=      5-min Rain = 0
KVP1 170725Z 29006KT 05/01 A30 RMK A01 T00500008  RH  074%=      5-min Rain = 0
KVP1 170726Z 29006KT 05/01 A30 RMK A01 T00490009  RH  075%=      5-min Rain = 0
KVP1 170727Z 30006KT 05/01 A30 RMK A01 T00500009  RH  075%=      5-min Rain = 0
KVP1 170728Z 31005KT 05/01 A30 RMK A01 T00490009  RH  075%=      5-min Rain = 0
KVP1 170729Z 31005KT 05/01 A30 RMK A01 T00500010  RH  075%=      5-min Rain = 0
KVP1 170730Z 32005KT 05/01 A30 RMK A01 T00490010  RH  076%=      5-min Rain = 0
KVP1 170731Z 32006KT 05/01 A30 RMK A01 T00490010  RH  076%=      5-min Rain = 0
KVP1 170732Z 33005KT 05/01 A30 RMK A01 T00490010  RH  076%=      5-min Rain = 0
KVP1 170733Z 32006KT 05/01 A2999 RMK A01 T00490010  RH  076%=      5-min Rain = 0
KVP1 170734Z 33006KT 05/01 A2999 RMK A01 T00500011  RH  076%=      5-min Rain = 0
KVP1 170735Z 32007KT 05/01 A2999 RMK A01 T00510011  RH  075%=      5-min Rain = 0
KVP1 170736Z 32008KT 05/01 A30 RMK A01 T00510010  RH  075%=      5-min Rain = 0
KVP1 170737Z 32008KT 05/01 A30 RMK A01 T00510010  RH  075%=      5-min Rain = 0
KVP1 170738Z 32008KT 05/01 A30 RMK A01 T00520012  RH  075%=      5-min Rain = 0
KVP1 170739Z 33007KT 05/01 A30 RMK A01 T00540012  RH  074%=      5-min Rain = 0
KVP1 170740Z 33007KT 06/01 A30 RMK A01 T00550012  RH  074%=      5-min Rain = 0
KVP1 170741Z 33007KT 06/01 A30 RMK A01 T00560012  RH  073%=      5-min Rain = 0
KVP1 170742Z 33007KT 06/01 A30 RMK A01 T00560012  RH  073%=      5-min Rain = 0
KVP1 170743Z 33007KT 06/01 A30 RMK A01 T00570012  RH  073%=      5-min Rain = 0
KVP1 170744Z 33008KT 06/01 A3001 RMK A01 T00570011  RH  073%=      5-min Rain = 0
KVP1 170745Z 33008KT 06/01 A3001 RMK A01 T00570012  RH  072%=      5-min Rain = 0
KVP1 170746Z 33008KT 06/01 A3001 RMK A01 T00570011  RH  072%=      5-min Rain = 0
KVP1 170747Z 33007KT 06/01 A3001 RMK A01 T00570011  RH  072%=      5-min Rain = 0
KVP1 170748Z 33007KT 06/01 A3001 RMK A01 T00570011  RH  072%=      5-min Rain = 0
KVP1 170749Z 33007KT 06/01 A3001 RMK A01 T00560010  RH  072%=      5-min Rain = 0
KVP1 170750Z 33007KT 06/01 A3001 RMK A01 T00550010  RH  073%=      5-min Rain = 0
KVP1 170751Z 33007KT 06/01 A3001 RMK A01 T00550010  RH  073%=      5-min Rain = 0
KVP1 170752Z 33007KT 05/01 A3001 RMK A01 T00540010  RH  073%=      5-min Rain = 0
KVP1 170753Z 34007KT 05/01 A3001 RMK A01 T00540010  RH  073%=      5-min Rain = 0
KVP1 170754Z 34008KT 05/01 A3001 RMK A01 T00540010  RH  074%=      5-min Rain = 0
KVP1 170755Z 34009KT 05/01 A3001 RMK A01 T00540010  RH  074%=      5-min Rain = 0
KVP1 170756Z 34009KT 05/01 A3001 RMK A01 T00540011  RH  073%=      5-min Rain = 0
KVP1 170757Z 34009KT 06/01 A3001 RMK A01 T00550011  RH  073%=      5-min Rain = 0
KVP1 170758Z 34009KT 06/01 A3001 RMK A01 T00560012  RH  073%=      5-min Rain = 0
KVP1 170759Z 34010KT 06/01 A3001 RMK A01 T00580012  RH  072%=      5-min Rain = 0
KVP1 170800Z 34011KT 06/01 A3001 RMK A01 T00610013  RH  071%=      5-min Rain = 0
KVP1 170801Z 35011KT 06/01 A3001 RMK A01 T00640014  RH  070%=      5-min Rain = 0
KVP1 170802Z 35013G18KT 07/02 A3001 RMK A01 T00660015  RH  069%=      5-min Rain = 0
KVP1 170803Z 35014G19KT 07/02 A3001 RMK A01 T00710015  RH  068%=      5-min Rain = 0
KVP1 170804Z 36014KT 08/02 A3002 RMK A01 T00750015  RH  066%=      5-min Rain = 0
KVP1 170805Z 36015KT 08/02 A3002 RMK A01 T00790015  RH  064%=      5-min Rain = 0
KVP1 170806Z 36013G18KT 08/02 A3001 RMK A01 T00830015  RH  062%=      5-min Rain = 0
KVP1 170807Z 00013G18KT 09/01 A3002 RMK A01 T00850014  RH  061%=      5-min Rain = 0
KVP1 170808Z 01016KT 09/01 A3001 RMK A01 T00880014  RH  060%=      5-min Rain = 0
KVP1 170809Z 01014KT 09/01 A3001 RMK A01 T00900014  RH  059%=      5-min Rain = 0
KVP1 170810Z 01016G22KT 09/01 A3002 RMK A01 T00920012  RH  057%=      5-min Rain = 0
KVP1 170811Z 01016G21KT 10/01 A3002 RMK A01 T00950010  RH  055%=      5-min Rain = 0
KVP1 170812Z 01014G19KT 10/01 A3002 RMK A01 T00970010  RH  055%=      5-min Rain = 0
KVP1 170813Z 01015KT 10/01 A3002 RMK A01 T00980008  RH  054%=      5-min Rain = 0
KVP1 170814Z 01016KT 10/01 A3002 RMK A01 T00990007  RH  053%=      5-min Rain = 0
KVP1 170815Z 01017G22KT 10/01 A3002 RMK A01 T00990006  RH  052%=      5-min Rain = 0
KVP1 170816Z 01015KT 10/01 A3002 RMK A01 T01000005  RH  052%=      5-min Rain = 0
KVP1 170817Z 01019KT 10/01 A3002 RMK A01 T01010005  RH  051%=      5-min Rain = 0
KVP1 170818Z 01016G22KT 10/00 A3002 RMK A01 T01010004  RH  051%=      5-min Rain = 0
KVP1 170819Z 01019G24KT 10/00 A3002 RMK A01 T01010004  RH  051%=      5-min Rain = 0
KVP1 170820Z 01019G24KT 10/00 A3002 RMK A01 T01010003  RH  051%=      5-min Rain = 0
KVP1 170821Z 01015G20KT 10/00 A3002 RMK A01 T01010003  RH  050%=      5-min Rain = 0
KVP1 170822Z 01016KT 10/00 A3002 RMK A01 T01010003  RH  051%=      5-min Rain = 0
KVP1 170823Z 01016KT 10/00 A3002 RMK A01 T01000003  RH  051%=      5-min Rain = 0
KVP1 170824Z 01017G22KT 10/00 A3002 RMK A01 T00990003  RH  051%=      5-min Rain = 0
KVP1 170825Z 01015KT 10/00 A3002 RMK A01 T00990003  RH  051%=      5-min Rain = 0
KVP1 170826Z 01016G21KT 10/00 A3002 RMK A01 T00980003  RH  052%=      5-min Rain = 0
KVP1 170827Z 01014G23KT 10/00 A3002 RMK A01 T00980003  RH  052%=      5-min Rain = 0
KVP1 170828Z 00015KT 10/00 A3002 RMK A01 T00980003  RH  052%=      5-min Rain = 0
KVP1 170829Z 01014KT 10/00 A3002 RMK A01 T00970003  RH  052%=      5-min Rain = 0
KVP1 170830Z 01014KT 10/00 A3002 RMK A01 T00970003  RH  052%=      5-min Rain = 0
KVP1 170831Z 01013G18KT 10/00 A3002 RMK A01 T00960003  RH  052%=      5-min Rain = 0
KVP1 170832Z 01013KT 10/00 A3002 RMK A01 T00950003  RH  053%=      5-min Rain = 0
KVP1 170833Z 01013KT 10/00 A3002 RMK A01 T00950003  RH  053%=      5-min Rain = 0
KVP1 170834Z 01011KT 09/00 A3002 RMK A01 T00940004  RH  053%=      5-min Rain = 0
KVP1 170835Z 01011KT 09/00 A3002 RMK A01 T00930003  RH  053%=      5-min Rain = 0
KVP1 170836Z 01014KT 09/00 A3002 RMK A01 T00930003  RH  053%=      5-min Rain = 0
KVP1 170837Z 00013KT 09/00 A3002 RMK A01 T00930003  RH  053%=      5-min Rain = 0
KVP1 170838Z 01014KT 09/00 A3002 RMK A01 T00940003  RH  053%=      5-min Rain = 0
KVP1 170839Z 01012KT 09/00 A3002 RMK A01 T00930002  RH  053%=      5-min Rain = 0
KVP1 170840Z 01013KT 09/00 A3002 RMK A01 T00930002  RH  053%=      5-min Rain = 0
KVP1 170841Z 01012KT 09/00 A3002 RMK A01 T00930002  RH  053%=      5-min Rain = 0
KVP1 170842Z 00011KT 09/00 A3002 RMK A01 T00930001  RH  053%=      5-min Rain = 0
KVP1 170843Z 00013KT 09/00 A3002 RMK A01 T00930000  RH  052%=      5-min Rain = 0
KVP1 170844Z 00013KT 09/00 A3002 RMK A01 T009300-0  RH  052%=      5-min Rain = 0
KVP1 170845Z 00014KT 09/M00 A3003 RMK A01 T00931001  RH  052%=      5-min Rain = 0
KVP1 170846Z 00014KT 09/M00 A3003 RMK A01 T00941002  RH  051%=      5-min Rain = 0
KVP1 170847Z 00014KT 09/M00 A3003 RMK A01 T00941003  RH  051%=      5-min Rain = 0
KVP1 170848Z 00013KT 10/M00 A3003 RMK A01 T00951003  RH  050%=      5-min Rain = 0
KVP1 170849Z 00015KT 10/M00 A3003 RMK A01 T00951004  RH  050%=      5-min Rain = 0
KVP1 170850Z 36016KT 10/M01 A3003 RMK A01 T00951005  RH  050%=      5-min Rain = 0
KVP1 170851Z 00013KT 10/M01 A3003 RMK A01 T00951006  RH  049%=      5-min Rain = 0
KVP1 170852Z 36014G19KT 10/M01 A3003 RMK A01 T00951007  RH  049%=      5-min Rain = 0
KVP1 170853Z 36014KT 10/M01 A3003 RMK A01 T00951008  RH  049%=      5-min Rain = 0
KVP1 170854Z 00017G23KT 10/M01 A3003 RMK A01 T00951008  RH  048%=      5-min Rain = 0
KVP1 170855Z 36016G22KT 10/M01 A3003 RMK A01 T00961009  RH  048%=      5-min Rain = 0
KVP1 170856Z 00018G23KT 10/M01 A3003 RMK A01 T00971010  RH  047%=      5-min Rain = 0
KVP1 170857Z 36016KT 10/M01 A3003 RMK A01 T00971010  RH  047%=      5-min Rain = 0
KVP1 170858Z 35017G22KT 10/M01 A3003 RMK A01 T00971010  RH  047%=      5-min Rain = 0
KVP1 170859Z 36017G22KT 10/M01 A3003 RMK A01 T00961010  RH  047%=      5-min Rain = 0
KVP1 170900Z 36018KT 10/M01 A3003 RMK A01 T00961010  RH  047%=      5-min Rain = 0
KVP1 170901Z 36014KT 10/M01 A3003 RMK A01 T00961011  RH  047%=      5-min Rain = 0
KVP1 170902Z 35018G23KT 10/M01 A3003 RMK A01 T00951011  RH  048%=      5-min Rain = 0
KVP1 170903Z 36017KT 10/M01 A3003 RMK A01 T00951011  RH  048%=      5-min Rain = 0
KVP1 170904Z 36013G18KT 09/M01 A3003 RMK A01 T00941011  RH  048%=      5-min Rain = 0
KVP1 170905Z 36015G21KT 09/M01 A3003 RMK A01 T00931011  RH  048%=      5-min Rain = 0
KVP1 170906Z 00016G21KT 09/M01 A3003 RMK A01 T00931011  RH  048%=      5-min Rain = 0
KVP1 170907Z 36018KT 09/M01 A3004 RMK A01 T00931011  RH  048%=      5-min Rain = 0
KVP1 170908Z 00021G26KT 09/M01 A3004 RMK A01 T00931011  RH  048%=      5-min Rain = 0
KVP1 170909Z 00019G28KT 09/M01 A3004 RMK A01 T00931011  RH  048%=      5-min Rain = 0
KVP1 170910Z 00018G25KT 09/M01 A3004 RMK A01 T00931011  RH  048%=      5-min Rain = 0
KVP1 170911Z 35019G25KT 09/M01 A3004 RMK A01 T00921011  RH  048%=      5-min Rain = 0
KVP1 170912Z 35019G24KT 09/M01 A3004 RMK A01 T00921011  RH  048%=      5-min Rain = 0
KVP1 170913Z 35017G22KT 09/M01 A3004 RMK A01 T00921011  RH  049%=      5-min Rain = 0
KVP1 170914Z 35017G23KT 09/M01 A3004 RMK A01 T00911011  RH  049%=      5-min Rain = 0
KVP1 170915Z 35019G24KT 09/M01 A3004 RMK A01 T00901011  RH  049%=      5-min Rain = 0
KVP1 170916Z 36021G27KT 09/M01 A3004 RMK A01 T00901010  RH  049%=      5-min Rain = 0
KVP1 170917Z 35018G23KT 09/M01 A3004 RMK A01 T00901010  RH  049%=      5-min Rain = 0
KVP1 170918Z 36019KT 09/M01 A3004 RMK A01 T00901010  RH  050%=      5-min Rain = 0
KVP1 170919Z 35020G27KT 09/M01 A3004 RMK A01 T00901010  RH  050%=      5-min Rain = 0
KVP1 170920Z 36021G26KT 09/M01 A3004 RMK A01 T00891010  RH  050%=      5-min Rain = 0
KVP1 170921Z 35021KT 09/M01 A3004 RMK A01 T00891010  RH  050%=      5-min Rain = 0
KVP1 170922Z 36019G27KT 09/M01 A3004 RMK A01 T00891009  RH  050%=      5-min Rain = 0
KVP1 170923Z 35025G30KT 09/M01 A3004 RMK A01 T00881009  RH  050%=      5-min Rain = 0
KVP1 170924Z 36020KT 09/M01 A3005 RMK A01 T00881009  RH  050%=      5-min Rain = 0
KVP1 170925Z 00021KT 09/M01 A3005 RMK A01 T00881009  RH  051%=      5-min Rain = 0
KVP1 170926Z 00018G23KT 09/M01 A3005 RMK A01 T00871008  RH  051%=      5-min Rain = 0
KVP1 170927Z 01017G24KT 09/M01 A3005 RMK A01 T00861009  RH  051%=      5-min Rain = 0
KVP1 170928Z 00018G23KT 09/M01 A3005 RMK A01 T00861008  RH  051%=      5-min Rain = 0
KVP1 170929Z 00016G22KT 09/M01 A3005 RMK A01 T00861008  RH  052%=      5-min Rain = 0
KVP1 170930Z 00015G24KT 09/M01 A3005 RMK A01 T00861008  RH  052%=      5-min Rain = 0
KVP1 170931Z 36019G25KT 09/M01 A3005 RMK A01 T00851008  RH  052%=      5-min Rain = 0
KVP1 170932Z 36019KT 09/M01 A3006 RMK A01 T00861008  RH  052%=      5-min Rain = 0
KVP1 170933Z 36019G24KT 09/M01 A3006 RMK A01 T00861008  RH  052%=      5-min Rain = 0
KVP1 170934Z 35017KT 09/M01 A3006 RMK A01 T00861008  RH  052%=      5-min Rain = 0
KVP1 170935Z 36017G23KT 09/M01 A3006 RMK A01 T00861008  RH  052%=      5-min Rain = 0
KVP1 170936Z 36015G20KT 09/M01 A3006 RMK A01 T00861007  RH  052%=      5-min Rain = 0
KVP1 170937Z 00017G22KT 09/M01 A3006 RMK A01 T00851007  RH  052%=      5-min Rain = 0
KVP1 170938Z 00015KT 09/M01 A3006 RMK A01 T00851007  RH  052%=      5-min Rain = 0
KVP1 170939Z 00014KT 09/M01 A3006 RMK A01 T00851007  RH  053%=      5-min Rain = 0
KVP1 170940Z 00015G20KT 08/M01 A3006 RMK A01 T00841006  RH  053%=      5-min Rain = 0
KVP1 170941Z 01016G21KT 08/M01 A3005 RMK A01 T00841006  RH  053%=      5-min Rain = 0
KVP1 170942Z 01014KT 08/M01 A3006 RMK A01 T00841006  RH  053%=      5-min Rain = 0
KVP1 170943Z 01011KT 08/M01 A3006 RMK A01 T00831006  RH  053%=      5-min Rain = 0
KVP1 170944Z 01013G19KT 08/M01 A3006 RMK A01 T00831006  RH  053%=      5-min Rain = 0
KVP1 170945Z 01012G17KT 08/M01 A3006 RMK A01 T00821006  RH  054%=      5-min Rain = 0
KVP1 170946Z 01012KT 08/M01 A3006 RMK A01 T00821006  RH  054%=      5-min Rain = 0
KVP1 170947Z 01015KT 08/M01 A3006 RMK A01 T00821006  RH  054%=      5-min Rain = 0
KVP1 170948Z 01016KT 08/M01 A3006 RMK A01 T00831006  RH  053%=      5-min Rain = 0
KVP1 170949Z 00014KT 08/M01 A3006 RMK A01 T00831006  RH  053%=      5-min Rain = 0
KVP1 170950Z 01016KT 08/M01 A3006 RMK A01 T00841006  RH  053%=      5-min Rain = 0
KVP1 170951Z 01016KT 08/M01 A3006 RMK A01 T00841006  RH  053%=      5-min Rain = 0
KVP1 170952Z 01015KT 08/M01 A3006 RMK A01 T00841006  RH  053%=      5-min Rain = 0
KVP1 170953Z 01016G22KT 08/M01 A3006 RMK A01 T00841006  RH  053%=      5-min Rain = 0
KVP1 170954Z 01014G20KT 08/M01 A3006 RMK A01 T00841006  RH  053%=      5-min Rain = 0
KVP1 170955Z 01017KT 08/M01 A3006 RMK A01 T00841006  RH  053%=      5-min Rain = 0
KVP1 170956Z 01015KT 08/M01 A3006 RMK A01 T00841006  RH  053%=      5-min Rain = 0
KVP1 170957Z 01017KT 08/M01 A3006 RMK A01 T00841006  RH  053%=      5-min Rain = 0
KVP1 170958Z 01015G21KT 08/M01 A3006 RMK A01 T00831006  RH  053%=      5-min Rain = 0
KVP1 170959Z 01017G23KT 08/M01 A3006 RMK A01 T00831005  RH  054%=      5-min Rain = 0
KVP1 171000Z 01016G22KT 08/M01 A3006 RMK A01 T00831005  RH  054%=      5-min Rain = 0
KVP1 171001Z 00014KT 08/M01 A3006 RMK A01 T00821005  RH  054%=      5-min Rain = 0
KVP1 171002Z 01015KT 08/M01 A3007 RMK A01 T00811006  RH  054%=      5-min Rain = 0
KVP1 171003Z 01016KT 08/M01 A3007 RMK A01 T00811005  RH  055%=      5-min Rain = 0
KVP1 171004Z 01016G22KT 08/M01 A3007 RMK A01 T00801005  RH  055%=      5-min Rain = 0
KVP1 171005Z 01014KT 08/M01 A3007 RMK A01 T00811005  RH  055%=      5-min Rain = 0
KVP1 171006Z 01015G21KT 08/M01 A3007 RMK A01 T00801005  RH  055%=      5-min Rain = 0
KVP1 171007Z 01016G21KT 08/M01 A3007 RMK A01 T00801005  RH  055%=      5-min Rain = 0
KVP1 171008Z 01017KT 08/M01 A3007 RMK A01 T00801005  RH  055%=      5-min Rain = 0
KVP1 171009Z 01015KT 08/M00 A3007 RMK A01 T00801004  RH  055%=      5-min Rain = 0
KVP1 171010Z 01016G23KT 08/M00 A3007 RMK A01 T00801004  RH  055%=      5-min Rain = 0
KVP1 171011Z 01017KT 08/M00 A3007 RMK A01 T00801004  RH  055%=      5-min Rain = 0
KVP1 171012Z 01018G23KT 08/M00 A3007 RMK A01 T00801004  RH  055%=      5-min Rain = 0
KVP1 171013Z 01016G21KT 08/M00 A3007 RMK A01 T00801004  RH  055%=      5-min Rain = 0
KVP1 171014Z 01017G23KT 08/M00 A3007 RMK A01 T00811003  RH  056%=      5-min Rain = 0
KVP1 171015Z 01015KT 08/M00 A3007 RMK A01 T00811003  RH  056%=      5-min Rain = 0
KVP1 171016Z 01015KT 08/M00 A3007 RMK A01 T00801003  RH  056%=      5-min Rain = 0
KVP1 171017Z 01018KT 08/M00 A3007 RMK A01 T00791003  RH  056%=      5-min Rain = 0
KVP1 171018Z 02015KT 08/M00 A3007 RMK A01 T00791003  RH  056%=      5-min Rain = 0
KVP1 171019Z 01015G20KT 08/M00 A3007 RMK A01 T00781003  RH  056%=      5-min Rain = 0
KVP1 171020Z 01015G20KT 08/M00 A3007 RMK A01 T00781003  RH  057%=      5-min Rain = 0
KVP1 171021Z 01015KT 08/M00 A3007 RMK A01 T00771003  RH  057%=      5-min Rain = 0
KVP1 171022Z 01016KT 08/M00 A3007 RMK A01 T00771003  RH  057%=      5-min Rain = 0
KVP1 171023Z 01015KT 08/M00 A3007 RMK A01 T00771003  RH  057%=      5-min Rain = 0
KVP1 171024Z 02015G21KT 08/M00 A3007 RMK A01 T00771003  RH  057%=      5-min Rain = 0
KVP1 171025Z 01014KT 08/M00 A3007 RMK A01 T00761003  RH  057%=      5-min Rain = 0
KVP1 171026Z 01015G20KT 08/M00 A3007 RMK A01 T00761003  RH  057%=      5-min Rain = 0
KVP1 171027Z 01014KT 08/M00 A3007 RMK A01 T00761003  RH  057%=      5-min Rain = 0
KVP1 171028Z 01014G20KT 08/M00 A3007 RMK A01 T00761003  RH  057%=      5-min Rain = 0
KVP1 171029Z 01014KT 08/M00 A3007 RMK A01 T00761003  RH  057%=      5-min Rain = 0
KVP1 171030Z 01015KT 08/M00 A3007 RMK A01 T00761002  RH  058%=      5-min Rain = 0
KVP1 171031Z 01015KT 08/M00 A3007 RMK A01 T00761002  RH  058%=      5-min Rain = 0
KVP1 171032Z 01014KT 08/M00 A3007 RMK A01 T00761002  RH  058%=      5-min Rain = 0
KVP1 171033Z 01015G21KT 08/M00 A3007 RMK A01 T00751003  RH  058%=      5-min Rain = 0
KVP1 171034Z 00015G20KT 07/M00 A3007 RMK A01 T00741003  RH  058%=      5-min Rain = 0
KVP1 171035Z 01014KT 08/M00 A3008 RMK A01 T00751002  RH  058%=      5-min Rain = 0
KVP1 171036Z 00013G19KT 08/M00 A3008 RMK A01 T00751002  RH  058%=      5-min Rain = 0
KVP1 171037Z 01015KT 08/M00 A3008 RMK A01 T00751002  RH  058%=      5-min Rain = 0
KVP1 171038Z 01016G23KT 08/M00 A3008 RMK A01 T00751002  RH  058%=      5-min Rain = 0
KVP1 171039Z 01019KT 07/M00 A3008 RMK A01 T00741002  RH  058%=      5-min Rain = 0
KVP1 171040Z 02016KT 08/M00 A3008 RMK A01 T00751002  RH  058%=      5-min Rain = 0
KVP1 171041Z 01014KT 08/M00 A3008 RMK A01 T00761001  RH  058%=      5-min Rain = 0
KVP1 171042Z 01015G21KT 08/M00 A3008 RMK A01 T00751001  RH  058%=      5-min Rain = 0
KVP1 171043Z 01015KT 08/M00 A3008 RMK A01 T00751001  RH  059%=      5-min Rain = 0
KVP1 171044Z 01014KT 08/M00 A3008 RMK A01 T00751001  RH  059%=      5-min Rain = 0
KVP1 171045Z 01018G24KT 07/M00 A3008 RMK A01 T00741001  RH  059%=      5-min Rain = 0
KVP1 171046Z 01016G21KT 08/00 A3008 RMK A01 T007500-0  RH  059%=      5-min Rain = 0
KVP1 171047Z 01016G21KT 07/M00 A3008 RMK A01 T00741001  RH  059%=      5-min Rain = 0
KVP1 171048Z 01015KT 07/00 A3008 RMK A01 T007400-0  RH  059%=      5-min Rain = 0
KVP1 171049Z 01014KT 07/00 A3008 RMK A01 T007400-0  RH  059%=      5-min Rain = 0
KVP1 171050Z 01015KT 07/00 A3008 RMK A01 T00740000  RH  060%=      5-min Rain = 0
KVP1 171051Z 01013KT 07/00 A3008 RMK A01 T00730000  RH  060%=      5-min Rain = 0
KVP1 171052Z 01017KT 07/00 A3008 RMK A01 T00730000  RH  060%=      5-min Rain = 0
KVP1 171053Z 01016KT 07/00 A3009 RMK A01 T00720000  RH  060%=      5-min Rain = 0
KVP1 171054Z 01017KT 07/00 A3009 RMK A01 T00730001  RH  060%=      5-min Rain = 0
KVP1 171055Z 01014G19KT 07/00 A3009 RMK A01 T00730000  RH  060%=      5-min Rain = 0
KVP1 171056Z 01016G21KT 07/00 A3009 RMK A01 T00730000  RH  060%=      5-min Rain = 0
KVP1 171057Z 01015G21KT 07/00 A3009 RMK A01 T00730001  RH  060%=      5-min Rain = 0
KVP1 171058Z 01016KT 07/00 A3009 RMK A01 T00720001  RH  060%=      5-min Rain = 0
KVP1 171059Z 02016KT 07/00 A3009 RMK A01 T00720001  RH  061%=      5-min Rain = 0
KVP1 171100Z 01017KT 07/00 A3009 RMK A01 T00720001  RH  061%=      5-min Rain = 0
KVP1 171101Z 01016KT 07/00 A3009 RMK A01 T00720001  RH  061%=      5-min Rain = 0
KVP1 171102Z 01016KT 07/00 A3009 RMK A01 T00720002  RH  061%=      5-min Rain = 0
KVP1 171103Z 00015G20KT 07/00 A3009 RMK A01 T00720002  RH  061%=      5-min Rain = 0
KVP1 171104Z 01018G23KT 07/00 A3009 RMK A01 T00720002  RH  061%=      5-min Rain = 0
KVP1 171105Z 01016KT 07/00 A3009 RMK A01 T00720002  RH  061%=      5-min Rain = 0
KVP1 171106Z 01015G23KT 07/00 A3009 RMK A01 T00720002  RH  061%=      5-min Rain = 0
KVP1 171107Z 01017G22KT 07/00 A3009 RMK A01 T00710002  RH  061%=      5-min Rain = 0
KVP1 171108Z 01015G22KT 07/00 A3009 RMK A01 T00710002  RH  062%=      5-min Rain = 0
KVP1 171109Z 01017G23KT 07/00 A3009 RMK A01 T00710002  RH  062%=      5-min Rain = 0
KVP1 171110Z 01014G19KT 07/00 A301 RMK A01 T00710003  RH  062%=      5-min Rain = 0
KVP1 171111Z 01017KT 07/00 A301 RMK A01 T00710003  RH  062%=      5-min Rain = 0
KVP1 171112Z 01015G21KT 07/00 A301 RMK A01 T00710003  RH  062%=      5-min Rain = 0
KVP1 171113Z 01016KT 07/00 A301 RMK A01 T00710003  RH  062%=      5-min Rain = 0
KVP1 171114Z 01014G20KT 07/00 A301 RMK A01 T00710003  RH  062%=      5-min Rain = 0
KVP1 171115Z 01018G24KT 07/00 A301 RMK A01 T00700003  RH  062%=      5-min Rain = 0
KVP1 171116Z 00016G24KT 07/00 A301 RMK A01 T00700004  RH  062%=      5-min Rain = 0
KVP1 171117Z 01017G25KT 07/00 A301 RMK A01 T00700004  RH  062%=      5-min Rain = 0
KVP1 171118Z 01018G23KT 07/00 A301 RMK A01 T00710004  RH  062%=      5-min Rain = 0
KVP1 171119Z 01017G23KT 07/00 A301 RMK A01 T00710004  RH  062%=      5-min Rain = 0
KVP1 171120Z 01016KT 07/00 A301 RMK A01 T00710004  RH  062%=      5-min Rain = 0
KVP1 171121Z 00016KT 07/00 A301 RMK A01 T00710004  RH  063%=      5-min Rain = 0
KVP1 171122Z 00014G20KT 07/01 A301 RMK A01 T00710005  RH  063%=      5-min Rain = 0
KVP1 171123Z 01020KT 07/01 A301 RMK A01 T00700005  RH  063%=      5-min Rain = 0
KVP1 171124Z 01017G22KT 07/01 A3011 RMK A01 T00700005  RH  063%=      5-min Rain = 0
KVP1 171125Z 01014G19KT 07/01 A301 RMK A01 T00700005  RH  063%=      5-min Rain = 0
KVP1 171126Z 01016G21KT 07/01 A3011 RMK A01 T00700005  RH  063%=      5-min Rain = 0
KVP1 171127Z 01017KT 07/01 A3011 RMK A01 T00700005  RH  064%=      5-min Rain = 0
KVP1 171128Z 01019KT 07/01 A3011 RMK A01 T00700006  RH  064%=      5-min Rain = 0
KVP1 171129Z 01016G22KT 07/01 A301 RMK A01 T00700006  RH  064%=      5-min Rain = 0
KVP1 171130Z 01019G25KT 07/01 A3011 RMK A01 T00700006  RH  064%=      5-min Rain = 0
KVP1 171131Z 01017G22KT 07/01 A3011 RMK A01 T00700006  RH  064%=      5-min Rain = 0
KVP1 171132Z 01018G23KT 07/01 A3011 RMK A01 T00700006  RH  064%=      5-min Rain = 0
KVP1 171133Z 01016G24KT 07/01 A3011 RMK A01 T00700006  RH  064%=      5-min Rain = 0
KVP1 171134Z 01018G24KT 07/01 A3011 RMK A01 T00700006  RH  064%=      5-min Rain = 0
KVP1 171135Z 01018KT 07/01 A3011 RMK A01 T00690006  RH  064%=      5-min Rain = 0
KVP1 171136Z 01017G22KT 07/01 A3011 RMK A01 T00690007  RH  064%=      5-min Rain = 0
KVP1 171137Z 01018G25KT 07/01 A3011 RMK A01 T00690007  RH  064%=      5-min Rain = 0
KVP1 171138Z 01020G27KT 07/01 A3011 RMK A01 T00700007  RH  064%=      5-min Rain = 0
KVP1 171139Z 01018KT 07/01 A3011 RMK A01 T00690007  RH  064%=      5-min Rain = 0
KVP1 171140Z 01017KT 07/01 A3011 RMK A01 T00700007  RH  064%=      5-min Rain = 0
KVP1 171141Z 01019KT 07/01 A3011 RMK A01 T00690007  RH  065%=      5-min Rain = 0
KVP1 171142Z 01016G21KT 07/01 A3011 RMK A01 T00700007  RH  065%=      5-min Rain = 0
KVP1 171143Z 01017G22KT 07/01 A3011 RMK A01 T00690007  RH  065%=      5-min Rain = 0
KVP1 171144Z 01015KT 07/01 A3011 RMK A01 T00680007  RH  065%=      5-min Rain = 0
KVP1 171145Z 00017G22KT 07/01 A3011 RMK A01 T00680007  RH  065%=      5-min Rain = 0
KVP1 171146Z 01016KT 07/01 A3011 RMK A01 T00670007  RH  065%=      5-min Rain = 0
KVP1 171147Z 02015KT 07/01 A3012 RMK A01 T00670007  RH  065%=      5-min Rain = 0
KVP1 171148Z 01016G22KT 07/01 A3012 RMK A01 T00670007  RH  066%=      5-min Rain = 0
KVP1 171149Z 00016G21KT 07/01 A3012 RMK A01 T00660007  RH  066%=      5-min Rain = 0
KVP1 171150Z 01015KT 07/01 A3012 RMK A01 T00660007  RH  066%=      5-min Rain = 0
KVP1 171151Z 01017G23KT 07/01 A3012 RMK A01 T00660007  RH  066%=      5-min Rain = 0
KVP1 171152Z 01017G22KT 07/01 A3012 RMK A01 T00670007  RH  066%=      5-min Rain = 0
KVP1 171153Z 01015KT 07/01 A3012 RMK A01 T00670007  RH  066%=      5-min Rain = 0
KVP1 171154Z 01016G21KT 07/01 A3012 RMK A01 T00670007  RH  066%=      5-min Rain = 0
KVP1 171155Z 01019G24KT 07/01 A3012 RMK A01 T00670008  RH  066%=      5-min Rain = 0
KVP1 171156Z 01020KT 07/01 A3012 RMK A01 T00670007  RH  066%=      5-min Rain = 0
KVP1 171157Z 01018G23KT 07/01 A3012 RMK A01 T00680008  RH  065%=      5-min Rain = 0
KVP1 171158Z 01019G24KT 07/01 A3012 RMK A01 T00680008  RH  065%=      5-min Rain = 0
KVP1 171159Z 01020G25KT 07/01 A3012 RMK A01 T00680007  RH  065%=      5-min Rain = 0
KVP1 171200Z 01017G22KT 07/01 A3012 RMK A01 T00680008  RH  066%=      5-min Rain = 0
KVP1 171201Z 01020G26KT 07/01 A3012 RMK A01 T00670007  RH  066%=      5-min Rain = 0
KVP1 171202Z 01019G25KT 07/01 A3012 RMK A01 T00670008  RH  066%=      5-min Rain = 0
KVP1 171203Z 01017KT 07/01 A3012 RMK A01 T00680008  RH  065%=      5-min Rain = 0
KVP1 171204Z 01022G29KT 07/01 A3012 RMK A01 T00680007  RH  065%=      5-min Rain = 0
KVP1 171205Z 01019KT 07/01 A3012 RMK A01 T00680007  RH  065%=      5-min Rain = 0
KVP1 171206Z 01019G25KT 07/01 A3013 RMK A01 T00680007  RH  065%=      5-min Rain = 0
KVP1 171207Z 01017G22KT 07/01 A3013 RMK A01 T00680007  RH  065%=      5-min Rain = 0
KVP1 171208Z 00019G24KT 07/01 A3013 RMK A01 T00680008  RH  065%=      5-min Rain = 0
KVP1 171209Z 01020KT 07/01 A3013 RMK A01 T00670008  RH  066%=      5-min Rain = 0
KVP1 171210Z 01016G22KT 07/01 A3013 RMK A01 T00680008  RH  066%=      5-min Rain = 0
KVP1 171211Z 01014KT 07/01 A3013 RMK A01 T00670007  RH  065%=      5-min Rain = 0
KVP1 171212Z 01016KT 07/01 A3013 RMK A01 T00660007  RH  066%=      5-min Rain = 0
KVP1 171213Z 01016KT 07/01 A3013 RMK A01 T00660007  RH  066%=      5-min Rain = 0
KVP1 171214Z 01017KT 07/01 A3013 RMK A01 T00650007  RH  066%=      5-min Rain = 0
KVP1 171215Z 01019G25KT 07/01 A3013 RMK A01 T00650007  RH  066%=      5-min Rain = 0
KVP1 171216Z 01016KT 07/01 A3013 RMK A01 T00660008  RH  066%=      5-min Rain = 0
KVP1 171217Z 01017G22KT 07/01 A3014 RMK A01 T00660007  RH  066%=      5-min Rain = 0
KVP1 171218Z 00016KT 07/01 A3014 RMK A01 T00660007  RH  066%=      5-min Rain = 0
KVP1 171219Z 01015KT 07/01 A3014 RMK A01 T00660007  RH  066%=      5-min Rain = 0
KVP1 171220Z 01015KT 07/01 A3014 RMK A01 T00650007  RH  066%=      5-min Rain = 0
KVP1 171221Z 01019KT 07/01 A3014 RMK A01 T00650007  RH  067%=      5-min Rain = 0
KVP1 171222Z 01015G21KT 07/01 A3014 RMK A01 T00650008  RH  067%=      5-min Rain = 0
KVP1 171223Z 01016G21KT 07/01 A3014 RMK A01 T00650007  RH  067%=      5-min Rain = 0
KVP1 171224Z 01017G22KT 07/01 A3014 RMK A01 T00650008  RH  067%=      5-min Rain = 0
KVP1 171225Z 01015G20KT 07/01 A3014 RMK A01 T00650007  RH  067%=      5-min Rain = 0
KVP1 171226Z 01014KT 07/01 A3014 RMK A01 T00650007  RH  067%=      5-min Rain = 0
KVP1 171227Z 01015G21KT 06/01 A3014 RMK A01 T00640007  RH  067%=      5-min Rain = 0
KVP1 171228Z 01020G26KT 06/01 A3014 RMK A01 T00640007  RH  067%=      5-min Rain = 0
KVP1 171229Z 00018G23KT 06/01 A3014 RMK A01 T00640007  RH  067%=      5-min Rain = 0
KVP1 171230Z 02016KT 07/01 A3014 RMK A01 T00650007  RH  067%=      5-min Rain = 0
KVP1 171231Z 01015KT 06/01 A3014 RMK A01 T00640007  RH  067%=      5-min Rain = 0
KVP1 171232Z 01016G22KT 06/01 A3014 RMK A01 T00640007  RH  067%=      5-min Rain = 0
KVP1 171233Z 01020KT 06/01 A3014 RMK A01 T00630007  RH  067%=      5-min Rain = 0
KVP1 171234Z 01017KT 06/01 A3015 RMK A01 T00630007  RH  067%=      5-min Rain = 0
KVP1 171235Z 01016G21KT 06/01 A3015 RMK A01 T00640007  RH  067%=      5-min Rain = 0
KVP1 171236Z 01015KT 06/01 A3015 RMK A01 T00640007  RH  067%=      5-min Rain = 0
KVP1 171237Z 01015KT 06/01 A3015 RMK A01 T00630007  RH  067%=      5-min Rain = 0
KVP1 171238Z 01016G21KT 06/01 A3015 RMK A01 T00630007  RH  067%=      5-min Rain = 0
KVP1 171239Z 01016G21KT 06/01 A3015 RMK A01 T00620007  RH  068%=      5-min Rain = 0
KVP1 171240Z 01017KT 06/01 A3015 RMK A01 T00620007  RH  068%=      5-min Rain = 0
KVP1 171241Z 01014KT 06/01 A3015 RMK A01 T00630007  RH  067%=      5-min Rain = 0
KVP1 171242Z 01016KT 06/01 A3015 RMK A01 T00620006  RH  067%=      5-min Rain = 0
KVP1 171243Z 01015G20KT 06/01 A3015 RMK A01 T00620007  RH  068%=      5-min Rain = 0
KVP1 171244Z 01017G22KT 06/01 A3015 RMK A01 T00610007  RH  068%=      5-min Rain = 0
KVP1 171245Z 01016G21KT 06/01 A3015 RMK A01 T00610007  RH  068%=      5-min Rain = 0
KVP1 171246Z 01015G20KT 06/01 A3015 RMK A01 T00620007  RH  068%=      5-min Rain = 0
KVP1 171247Z 01016G23KT 06/01 A3015 RMK A01 T00620006  RH  068%=      5-min Rain = 0
KVP1 171248Z 01014G20KT 06/01 A3015 RMK A01 T00610006  RH  068%=      5-min Rain = 0
KVP1 171249Z 02016G22KT 06/01 A3015 RMK A01 T00610006  RH  068%=      5-min Rain = 0
KVP1 171250Z 01016G21KT 06/01 A3015 RMK A01 T00610006  RH  068%=      5-min Rain = 0
KVP1 171251Z 01014G19KT 06/01 A3015 RMK A01 T00610007  RH  068%=      5-min Rain = 0
KVP1 171252Z 01015G22KT 06/01 A3015 RMK A01 T00610007  RH  068%=      5-min Rain = 0
KVP1 171253Z 01014KT 06/01 A3015 RMK A01 T00610006  RH  068%=      5-min Rain = 0
KVP1 171254Z 01015KT 06/01 A3015 RMK A01 T00610006  RH  068%=      5-min Rain = 0
KVP1 171255Z 01017G23KT 06/01 A3015 RMK A01 T00600006  RH  068%=      5-min Rain = 0
KVP1 171256Z 02012KT 06/01 A3016 RMK A01 T00610006  RH  068%=      5-min Rain = 0
KVP1 171257Z 01013KT 06/01 A3016 RMK A01 T00600006  RH  068%=      5-min Rain = 0
KVP1 171258Z 01014KT 06/01 A3016 RMK A01 T00600006  RH  069%=      5-min Rain = 0
KVP1 171259Z 01013KT 06/01 A3016 RMK A01 T00590006  RH  069%=      5-min Rain = 0
KVP1 171300Z 01016KT 06/01 A3016 RMK A01 T00590006  RH  069%=      5-min Rain = 0
KVP1 171301Z 01015G21KT 06/01 A3016 RMK A01 T00590006  RH  069%=      5-min Rain = 0
KVP1 171302Z 01015G21KT 06/01 A3016 RMK A01 T00600007  RH  069%=      5-min Rain = 0
KVP1 171303Z 01014KT 06/01 A3016 RMK A01 T00600006  RH  068%=      5-min Rain = 0
KVP1 171304Z 01013G19KT 06/01 A3016 RMK A01 T00600006  RH  068%=      5-min Rain = 0
KVP1 171305Z 01016G22KT 06/01 A3016 RMK A01 T00590006  RH  069%=      5-min Rain = 0
KVP1 171306Z 02018KT 06/01 A3016 RMK A01 T00590006  RH  069%=      5-min Rain = 0
KVP1 171307Z 01015KT 06/01 A3016 RMK A01 T00600006  RH  068%=      5-min Rain = 0
KVP1 171308Z 01016KT 06/01 A3015 RMK A01 T00600006  RH  068%=      5-min Rain = 0
KVP1 171309Z 01014G21KT 06/01 A3016 RMK A01 T00600006  RH  068%=      5-min Rain = 0
KVP1 171310Z 02015KT 06/01 A3016 RMK A01 T00590006  RH  068%=      5-min Rain = 0
KVP1 171311Z 01014KT 06/01 A3016 RMK A01 T00590006  RH  069%=      5-min Rain = 0
KVP1 171312Z 01015KT 06/01 A3016 RMK A01 T00580006  RH  069%=      5-min Rain = 0
KVP1 171313Z 01015G20KT 06/01 A3016 RMK A01 T00590006  RH  069%=      5-min Rain = 0
KVP1 171314Z 01014KT 06/01 A3016 RMK A01 T00590006  RH  069%=      5-min Rain = 0
KVP1 171315Z 01014KT 06/01 A3016 RMK A01 T00580006  RH  069%=      5-min Rain = 0
KVP1 171316Z 01016KT 06/01 A3016 RMK A01 T00580006  RH  069%=      5-min Rain = 0
KVP1 171317Z 01015KT 06/01 A3016 RMK A01 T00580006  RH  069%=      5-min Rain = 0
KVP1 171318Z 01013G20KT 06/01 A3016 RMK A01 T00580006  RH  069%=      5-min Rain = 0
KVP1 171319Z 01014KT 06/01 A3016 RMK A01 T00580005  RH  069%=      5-min Rain = 0
KVP1 171320Z 01015G20KT 06/01 A3016 RMK A01 T00570005  RH  069%=      5-min Rain = 0
KVP1 171321Z 01016KT 06/01 A3016 RMK A01 T00570005  RH  069%=      5-min Rain = 0
KVP1 171322Z 02016G23KT 06/01 A3016 RMK A01 T00570005  RH  069%=      5-min Rain = 0
KVP1 171323Z 02013KT 06/01 A3016 RMK A01 T00570005  RH  069%=      5-min Rain = 0
KVP1 171324Z 01017G23KT 06/01 A3016 RMK A01 T00570005  RH  069%=      5-min Rain = 0
KVP1 171325Z 01017KT 06/01 A3016 RMK A01 T00570005  RH  069%=      5-min Rain = 0
KVP1 171326Z 01016KT 06/01 A3016 RMK A01 T00580006  RH  069%=      5-min Rain = 0
KVP1 171327Z 01015G20KT 06/01 A3016 RMK A01 T00580005  RH  069%=      5-min Rain = 0
KVP1 171328Z 01016KT 06/01 A3016 RMK A01 T00580005  RH  069%=      5-min Rain = 0
KVP1 171329Z 01015G21KT 06/01 A3017 RMK A01 T00580006  RH  069%=      5-min Rain = 0
KVP1 171330Z 01016G21KT 06/01 A3017 RMK A01 T00580005  RH  069%=      5-min Rain = 0
KVP1 171331Z 01014KT 06/01 A3017 RMK A01 T00570005  RH  069%=      5-min Rain = 0
KVP1 171332Z 01016KT 06/01 A3017 RMK A01 T00580006  RH  069%=      5-min Rain = 0
KVP1 171333Z 01016G21KT 06/01 A3017 RMK A01 T00570005  RH  069%=      5-min Rain = 0
KVP1 171334Z 01015G20KT 06/01 A3017 RMK A01 T00580006  RH  069%=      5-min Rain = 0
KVP1 171335Z 02012KT 06/01 A3017 RMK A01 T00580005  RH  069%=      5-min Rain = 0
KVP1 171336Z 02016KT 06/01 A3017 RMK A01 T00580006  RH  069%=      5-min Rain = 0
KVP1 171337Z 01016G21KT 06/01 A3017 RMK A01 T00580006  RH  069%=      5-min Rain = 0
KVP1 171338Z 01013G19KT 06/01 A3017 RMK A01 T00580006  RH  069%=      5-min Rain = 0
KVP1 171339Z 01012G17KT 06/01 A3017 RMK A01 T00580006  RH  069%=      5-min Rain = 0
KVP1 171340Z 02012G17KT 06/01 A3017 RMK A01 T00580006  RH  069%=      5-min Rain = 0
KVP1 171341Z 01013KT 06/01 A3017 RMK A01 T00580006  RH  069%=      5-min Rain = 0
KVP1 171342Z 01014G19KT 06/01 A3017 RMK A01 T00580006  RH  069%=      5-min Rain = 0
KVP1 171343Z 01014KT 06/01 A3017 RMK A01 T00580006  RH  069%=      5-min Rain = 0
KVP1 171344Z 01011KT 06/01 A3018 RMK A01 T00580006  RH  069%=      5-min Rain = 0
KVP1 171345Z 02011KT 06/01 A3018 RMK A01 T00580006  RH  069%=      5-min Rain = 0
KVP1 171346Z 01013KT 06/01 A3018 RMK A01 T00580006  RH  069%=      5-min Rain = 0
KVP1 171347Z 01013G18KT 06/01 A3018 RMK A01 T00580006  RH  069%=      5-min Rain = 0
KVP1 171348Z 01014G19KT 06/01 A3018 RMK A01 T00580006  RH  069%=      5-min Rain = 0
KVP1 171349Z 01011KT 06/01 A3018 RMK A01 T00580007  RH  069%=      5-min Rain = 0
KVP1 171350Z 01013G20KT 06/01 A3018 RMK A01 T00590007  RH  069%=      5-min Rain = 0
KVP1 171351Z 01014KT 06/01 A3018 RMK A01 T00590007  RH  069%=      5-min Rain = 0
KVP1 171352Z 01012KT 06/01 A3018 RMK A01 T00590007  RH  069%=      5-min Rain = 0
KVP1 171353Z 01012G17KT 06/01 A3018 RMK A01 T00600007  RH  069%=      5-min Rain = 0
KVP1 171354Z 01013G18KT 06/01 A3018 RMK A01 T00600007  RH  069%=      5-min Rain = 0
KVP1 171355Z 02013KT 06/01 A3018 RMK A01 T00600008  RH  069%=      5-min Rain = 0
KVP1 171356Z 01011KT 06/01 A3018 RMK A01 T00610007  RH  069%=      5-min Rain = 0
KVP1 171357Z 02012KT 06/01 A3018 RMK A01 T00610008  RH  069%=      5-min Rain = 0
KVP1 171358Z 02011KT 06/01 A3019 RMK A01 T00610008  RH  069%=      5-min Rain = 0
KVP1 171359Z 02013KT 06/01 A3019 RMK A01 T00610008  RH  069%=      5-min Rain = 0
KVP1 171400Z 02011KT 06/01 A3019 RMK A01 T00610008  RH  069%=      5-min Rain = 0
KVP1 171401Z 02012KT 06/01 A3019 RMK A01 T00610008  RH  069%=      5-min Rain = 0
KVP1 171402Z 02014G20KT 06/01 A3019 RMK A01 T00620008  RH  069%=      5-min Rain = 0
KVP1 171403Z 02013KT 06/01 A3019 RMK A01 T00620008  RH  068%=      5-min Rain = 0
KVP1 171404Z 02014KT 06/01 A3019 RMK A01 T00630008  RH  068%=      5-min Rain = 0
KVP1 171405Z 02011KT 06/01 A3019 RMK A01 T00630009  RH  068%=      5-min Rain = 0
KVP1 171406Z 01011KT 06/01 A3019 RMK A01 T00630009  RH  068%=      5-min Rain = 0
KVP1 171407Z 02013KT 06/01 A3019 RMK A01 T00630009  RH  068%=      5-min Rain = 0
KVP1 171408Z 02010KT 06/01 A3019 RMK A01 T00630009  RH  068%=      5-min Rain = 0
KVP1 171409Z 01011G17KT 06/01 A3019 RMK A01 T00630009  RH  068%=      5-min Rain = 0
KVP1 171410Z 01013KT 06/01 A3019 RMK A01 T00630009  RH  068%=      5-min Rain = 0
KVP1 171411Z 02014KT 06/01 A3019 RMK A01 T00640009  RH  068%=      5-min Rain = 0
KVP1 171412Z 01014KT 06/01 A3019 RMK A01 T00640009  RH  068%=      5-min Rain = 0
KVP1 171413Z 02013KT 06/01 A3019 RMK A01 T00640009  RH  068%=      5-min Rain = 0
KVP1 171414Z 02012G18KT 06/01 A3019 RMK A01 T00640009  RH  068%=      5-min Rain = 0
KVP1 171415Z 01013KT 07/01 A3019 RMK A01 T00650010  RH  068%=      5-min Rain = 0
KVP1 171416Z 02012KT 07/01 A3019 RMK A01 T00650010  RH  068%=      5-min Rain = 0
KVP1 171417Z 01011KT 07/01 A3019 RMK A01 T00650010  RH  068%=      5-min Rain = 0
KVP1 171418Z 01012KT 07/01 A3019 RMK A01 T00650010  RH  068%=      5-min Rain = 0
KVP1 171419Z 01011G17KT 07/01 A3019 RMK A01 T00660010  RH  068%=      5-min Rain = 0
KVP1 171420Z 02013KT 07/01 A3019 RMK A01 T00660010  RH  067%=      5-min Rain = 0
KVP1 171421Z 01012KT 07/01 A302 RMK A01 T00660010  RH  067%=      5-min Rain = 0
KVP1 171422Z 01012KT 07/01 A302 RMK A01 T00660010  RH  067%=      5-min Rain = 0
KVP1 171423Z 01013KT 07/01 A302 RMK A01 T00670011  RH  067%=      5-min Rain = 0
KVP1 171424Z 01014KT 07/01 A302 RMK A01 T00670010  RH  067%=      5-min Rain = 0
KVP1 171425Z 01014KT 07/01 A3019 RMK A01 T00670011  RH  067%=      5-min Rain = 0
KVP1 171426Z 01010G16KT 07/01 A302 RMK A01 T00670010  RH  067%=      5-min Rain = 0
KVP1 171427Z 01016KT 07/01 A3019 RMK A01 T00670011  RH  067%=      5-min Rain = 0
KVP1 171428Z 02016KT 07/01 A3019 RMK A01 T00680010  RH  067%=      5-min Rain = 0
KVP1 171429Z 01014KT 07/01 A3019 RMK A01 T00680010  RH  067%=      5-min Rain = 0
KVP1 171430Z 01014G19KT 07/01 A3019 RMK A01 T00680011  RH  067%=      5-min Rain = 0
KVP1 171431Z 01015G20KT 07/01 A3019 RMK A01 T00680011  RH  067%=      5-min Rain = 0
KVP1 171432Z 01014KT 07/01 A3019 RMK A01 T00680011  RH  067%=      5-min Rain = 0
KVP1 171433Z 02015KT 07/01 A3019 RMK A01 T00680011  RH  067%=      5-min Rain = 0
KVP1 171434Z 02014G19KT 07/01 A3019 RMK A01 T00690011  RH  067%=      5-min Rain = 0
KVP1 171435Z 01013KT 07/01 A3019 RMK A01 T00690011  RH  067%=      5-min Rain = 0
KVP1 171436Z 01016KT 07/01 A3019 RMK A01 T00690011  RH  067%=      5-min Rain = 0
KVP1 171437Z 01014KT 07/01 A3019 RMK A01 T00690012  RH  067%=      5-min Rain = 0
KVP1 171438Z 02015KT 07/01 A3019 RMK A01 T00680012  RH  067%=      5-min Rain = 0
KVP1 171439Z 01014KT 07/01 A3019 RMK A01 T00690012  RH  067%=      5-min Rain = 0
KVP1 171440Z 01015KT 07/01 A3019 RMK A01 T00690012  RH  067%=      5-min Rain = 0
KVP1 171441Z 02015KT 07/01 A3019 RMK A01 T00680012  RH  067%=      5-min Rain = 0
KVP1 171442Z 02015KT 07/01 A3019 RMK A01 T00680012  RH  067%=      5-min Rain = 0
KVP1 171443Z 01011KT 07/01 A3019 RMK A01 T00690012  RH  067%=      5-min Rain = 0
KVP1 171444Z 01010G15KT 07/01 A302 RMK A01 T00700013  RH  067%=      5-min Rain = 0
KVP1 171445Z 01012G17KT 07/01 A302 RMK A01 T00710014  RH  067%=      5-min Rain = 0
KVP1 171446Z 02012KT 07/01 A302 RMK A01 T00710013  RH  067%=      5-min Rain = 0
KVP1 171447Z 02012G18KT 07/01 A302 RMK A01 T00710013  RH  067%=      5-min Rain = 0
KVP1 171448Z 02012G17KT 07/01 A302 RMK A01 T00710014  RH  067%=      5-min Rain = 0
KVP1 171449Z 02013KT 07/01 A302 RMK A01 T00710013  RH  067%=      5-min Rain = 0
KVP1 171450Z 02011KT 07/01 A302 RMK A01 T00710013  RH  067%=      5-min Rain = 0
KVP1 171451Z 02011G17KT 07/01 A302 RMK A01 T00720014  RH  067%=      5-min Rain = 0
KVP1 171452Z 02014KT 07/01 A302 RMK A01 T00730014  RH  066%=      5-min Rain = 0
KVP1 171453Z 02012KT 07/01 A302 RMK A01 T00730014  RH  066%=      5-min Rain = 0
KVP1 171454Z 01015KT 07/01 A302 RMK A01 T00730013  RH  066%=      5-min Rain = 0
KVP1 171455Z 01015KT 07/01 A302 RMK A01 T00730013  RH  066%=      5-min Rain = 0
KVP1 171456Z 02015G20KT 07/01 A302 RMK A01 T00720013  RH  066%=      5-min Rain = 0
KVP1 171457Z 01015KT 07/01 A302 RMK A01 T00720013  RH  066%=      5-min Rain = 0
KVP1 171458Z 02011G16KT 07/01 A302 RMK A01 T00720013  RH  066%=      5-min Rain = 0
KVP1 171459Z 02011KT 07/02 A302 RMK A01 T00740015  RH  066%=      5-min Rain = 0
KVP1 171500Z 02011KT 08/02 A302 RMK A01 T00750015  RH  066%=      5-min Rain = 0
KVP1 171501Z 03011KT 08/02 A302 RMK A01 T00760015  RH  065%=      5-min Rain = 0
KVP1 171502Z 02013KT 08/02 A302 RMK A01 T00760015  RH  065%=      5-min Rain = 0
KVP1 171503Z 03014KT 08/01 A302 RMK A01 T00760014  RH  065%=      5-min Rain = 0
KVP1 171504Z 02013KT 08/01 A302 RMK A01 T00760014  RH  065%=      5-min Rain = 0
KVP1 171505Z 01012G17KT 08/01 A302 RMK A01 T00750014  RH  065%=      5-min Rain = 0
KVP1 171506Z 01013KT 08/01 A302 RMK A01 T00750014  RH  065%=      5-min Rain = 0
KVP1 171507Z 01012KT 08/01 A302 RMK A01 T00750014  RH  065%=      5-min Rain = 0
KVP1 171508Z 00012KT 08/01 A302 RMK A01 T00750014  RH  066%=      5-min Rain = 0
KVP1 171509Z 01013KT 08/02 A302 RMK A01 T00760015  RH  065%=      5-min Rain = 0
KVP1 171510Z 02014KT 08/01 A302 RMK A01 T00760014  RH  065%=      5-min Rain = 0
KVP1 171511Z 02014KT 08/01 A302 RMK A01 T00760014  RH  065%=      5-min Rain = 0
KVP1 171512Z 01012G17KT 08/02 A302 RMK A01 T00760015  RH  065%=      5-min Rain = 0
KVP1 171513Z 03013KT 08/02 A302 RMK A01 T00760015  RH  065%=      5-min Rain = 0
KVP1 171514Z 02012KT 08/02 A302 RMK A01 T00770016  RH  065%=      5-min Rain = 0
KVP1 171515Z 02013G18KT 08/02 A302 RMK A01 T00780016  RH  065%=      5-min Rain = 0
KVP1 171516Z 02014KT 08/02 A302 RMK A01 T00800017  RH  064%=      5-min Rain = 0
KVP1 171517Z 02015KT 08/02 A302 RMK A01 T00800015  RH  064%=      5-min Rain = 0
KVP1 171518Z 02013KT 08/02 A302 RMK A01 T00790015  RH  064%=      5-min Rain = 0
KVP1 171519Z 02012KT 08/02 A302 RMK A01 T00790015  RH  064%=      5-min Rain = 0
KVP1 171520Z 02013KT 08/02 A302 RMK A01 T00790015  RH  064%=      5-min Rain = 0
KVP1 171521Z 01013KT 08/02 A302 RMK A01 T00780015  RH  064%=      5-min Rain = 0
KVP1 171522Z 01014KT 08/02 A302 RMK A01 T00780015  RH  064%=      5-min Rain = 0
KVP1 171523Z 01014KT 08/02 A302 RMK A01 T00770015  RH  065%=      5-min Rain = 0
KVP1 171524Z 01013KT 08/02 A302 RMK A01 T00770015  RH  065%=      5-min Rain = 0
KVP1 171525Z 02014KT 08/02 A302 RMK A01 T00770015  RH  065%=      5-min Rain = 0
KVP1 171526Z 01011KT 08/02 A302 RMK A01 T00780016  RH  065%=      5-min Rain = 0
KVP1 171527Z 01012KT 08/02 A302 RMK A01 T00800016  RH  064%=      5-min Rain = 0
KVP1 171528Z 00013KT 08/02 A302 RMK A01 T00800016  RH  064%=      5-min Rain = 0
KVP1 171529Z 01014KT 08/02 A302 RMK A01 T00800016  RH  064%=      5-min Rain = 0
KVP1 171530Z 01012KT 08/02 A302 RMK A01 T00790016  RH  064%=      5-min Rain = 0
KVP1 171531Z 01013KT 08/02 A302 RMK A01 T00800016  RH  064%=      5-min Rain = 0
KVP1 171532Z 01012KT 08/02 A302 RMK A01 T00800016  RH  064%=      5-min Rain = 0
KVP1 171533Z 01015KT 08/02 A302 RMK A01 T00810016  RH  064%=      5-min Rain = 0
KVP1 171534Z 00013KT 08/02 A302 RMK A01 T00790016  RH  064%=      5-min Rain = 0
KVP1 171535Z 01012KT 08/02 A302 RMK A01 T00800017  RH  064%=      5-min Rain = 0
KVP1 171536Z 01013KT 08/02 A302 RMK A01 T00810016  RH  064%=      5-min Rain = 0
KVP1 171537Z 01013KT 08/02 A302 RMK A01 T00810016  RH  064%=      5-min Rain = 0
KVP1 171538Z 02015KT 08/02 A302 RMK A01 T00820017  RH  064%=      5-min Rain = 0
KVP1 171539Z 02012KT 08/02 A302 RMK A01 T00820016  RH  063%=      5-min Rain = 0
KVP1 171540Z 01013KT 08/02 A302 RMK A01 T00820017  RH  063%=      5-min Rain = 0
KVP1 171541Z 01012KT 08/02 A302 RMK A01 T00830017  RH  063%=      5-min Rain = 0
KVP1 171542Z 01015KT 08/02 A302 RMK A01 T00830016  RH  063%=      5-min Rain = 0
KVP1 171543Z 02013KT 08/02 A302 RMK A01 T00830016  RH  063%=      5-min Rain = 0
KVP1 171544Z 02011KT 08/02 A302 RMK A01 T00830016  RH  063%=      5-min Rain = 0
KVP1 171545Z 02014G20KT 09/02 A302 RMK A01 T00850018  RH  063%=      5-min Rain = 0
KVP1 171546Z 03015KT 09/02 A302 RMK A01 T00860017  RH  062%=      5-min Rain = 0
KVP1 171547Z 03013KT 09/02 A302 RMK A01 T00860017  RH  062%=      5-min Rain = 0
KVP1 171548Z 02014G19KT 09/02 A3019 RMK A01 T00860018  RH  062%=      5-min Rain = 0
KVP1 171549Z 01015KT 09/02 A3019 RMK A01 T00860017  RH  062%=      5-min Rain = 0
KVP1 171550Z 01014KT 09/02 A3019 RMK A01 T00860017  RH  062%=      5-min Rain = 0
KVP1 171551Z 02012KT 09/02 A3019 RMK A01 T00850016  RH  062%=      5-min Rain = 0
KVP1 171552Z 02011KT 08/02 A302 RMK A01 T00840017  RH  062%=      5-min Rain = 0
KVP1 171553Z 02011KT 09/02 A302 RMK A01 T00870019  RH  062%=      5-min Rain = 0
KVP1 171554Z 01013KT 09/02 A302 RMK A01 T00880018  RH  061%=      5-min Rain = 0
KVP1 171555Z 01011KT 09/02 A302 RMK A01 T00880017  RH  061%=      5-min Rain = 0
KVP1 171556Z 02012KT 09/02 A302 RMK A01 T00870018  RH  062%=      5-min Rain = 0
KVP1 171557Z 02013KT 09/02 A302 RMK A01 T00880018  RH  062%=      5-min Rain = 0
KVP1 171558Z 02013KT 09/02 A302 RMK A01 T00880017  RH  061%=      5-min Rain = 0
KVP1 171559Z 01014KT 09/02 A302 RMK A01 T00870018  RH  062%=      5-min Rain = 0
KVP1 171600Z 01012KT 09/02 A302 RMK A01 T00870018  RH  062%=      5-min Rain = 0
KVP1 171601Z 01012KT 09/02 A302 RMK A01 T00880018  RH  061%=      5-min Rain = 0
KVP1 171602Z 02011KT 09/02 A302 RMK A01 T00880018  RH  061%=      5-min Rain = 0
KVP1 171603Z 02013KT 09/02 A302 RMK A01 T00900019  RH  061%=      5-min Rain = 0
KVP1 171604Z 03011KT 09/02 A302 RMK A01 T00900018  RH  061%=      5-min Rain = 0
KVP1 171605Z 02011KT 09/02 A302 RMK A01 T00920020  RH  061%=      5-min Rain = 0
KVP1 171606Z 01010KT 09/02 A302 RMK A01 T00920019  RH  060%=      5-min Rain = 0
KVP1 171607Z 01012KT 09/02 A302 RMK A01 T00920019  RH  060%=      5-min Rain = 0
KVP1 171608Z 02011KT 09/02 A302 RMK A01 T00920019  RH  060%=      5-min Rain = 0
KVP1 171609Z 02012KT 09/02 A302 RMK A01 T00930019  RH  060%=      5-min Rain = 0
KVP1 171610Z 02014KT 09/02 A302 RMK A01 T00920018  RH  060%=      5-min Rain = 0
KVP1 171611Z 02013KT 09/02 A302 RMK A01 T00920018  RH  060%=      5-min Rain = 0
KVP1 171612Z 02013KT 09/02 A302 RMK A01 T00920018  RH  060%=      5-min Rain = 0
KVP1 171613Z 02011KT 09/02 A302 RMK A01 T00930018  RH  060%=      5-min Rain = 0
KVP1 171614Z 03012KT 10/02 A302 RMK A01 T00950020  RH  059%=      5-min Rain = 0
KVP1 171615Z 03012KT 10/02 A302 RMK A01 T00950018  RH  059%=      5-min Rain = 0
KVP1 171616Z 02013KT 09/02 A302 RMK A01 T00940018  RH  059%=      5-min Rain = 0
KVP1 171617Z 01012KT 09/02 A302 RMK A01 T00940020  RH  060%=      5-min Rain = 0
KVP1 171618Z 02014KT 10/02 A302 RMK A01 T00960020  RH  059%=      5-min Rain = 0
KVP1 171619Z 02015KT 10/02 A3019 RMK A01 T00970018  RH  058%=      5-min Rain = 0
KVP1 171620Z 02012KT 10/02 A3019 RMK A01 T00960018  RH  058%=      5-min Rain = 0
KVP1 171621Z 02014KT 10/02 A3019 RMK A01 T00960019  RH  058%=      5-min Rain = 0
KVP1 171622Z 03013KT 10/02 A3019 RMK A01 T00960018  RH  058%=      5-min Rain = 0
KVP1 171623Z 03012KT 10/02 A3019 RMK A01 T00960019  RH  059%=      5-min Rain = 0
KVP1 171624Z 02015KT 10/02 A3019 RMK A01 T00970021  RH  059%=      5-min Rain = 0
KVP1 171625Z 02011KT 10/02 A3019 RMK A01 T00980019  RH  058%=      5-min Rain = 0
KVP1 171626Z 03013KT 10/02 A3019 RMK A01 T00970019  RH  058%=      5-min Rain = 0
KVP1 171627Z 01012KT 10/02 A3019 RMK A01 T00970020  RH  059%=      5-min Rain = 0
KVP1 171628Z 01011KT 10/02 A3019 RMK A01 T00980020  RH  058%=      5-min Rain = 0
KVP1 171629Z 01010KT 10/02 A3019 RMK A01 T00960018  RH  058%=      5-min Rain = 0
KVP1 171630Z 01012G17KT 10/02 A3019 RMK A01 T00960019  RH  059%=      5-min Rain = 0
KVP1 171631Z 01012G17KT 10/02 A3019 RMK A01 T00970020  RH  059%=      5-min Rain = 0
KVP1 171632Z 03014KT 10/02 A3019 RMK A01 T00990019  RH  057%=      5-min Rain = 0
KVP1 171633Z 03012KT 10/02 A3019 RMK A01 T00980018  RH  057%=      5-min Rain = 0
KVP1 171634Z 03012KT 10/02 A3019 RMK A01 T00980020  RH  058%=      5-min Rain = 0
KVP1 171635Z 02011KT 10/02 A3019 RMK A01 T01010021  RH  057%=      5-min Rain = 0
KVP1 171636Z 02012KT 10/02 A3019 RMK A01 T01010019  RH  057%=      5-min Rain = 0
KVP1 171637Z 03009KT 10/02 A3019 RMK A01 T01010020  RH  057%=      5-min Rain = 0
KVP1 171638Z 03012KT 10/02 A3019 RMK A01 T01040023  RH  057%=      5-min Rain = 0
KVP1 171639Z 01012KT 11/02 A3019 RMK A01 T01050021  RH  056%=      5-min Rain = 0
KVP1 171640Z 02012KT 10/02 A3019 RMK A01 T01030019  RH  056%=      5-min Rain = 0
KVP1 171641Z 02013KT 10/02 A3019 RMK A01 T01010018  RH  056%=      5-min Rain = 0
KVP1 171642Z 02012G17KT 10/02 A3019 RMK A01 T01020020  RH  057%=      5-min Rain = 0
KVP1 171643Z 02015KT 10/02 A3019 RMK A01 T01030020  RH  057%=      5-min Rain = 0
KVP1 171644Z 02013KT 10/02 A3019 RMK A01 T01030020  RH  056%=      5-min Rain = 0
KVP1 171645Z 01013KT 10/02 A3019 RMK A01 T01020020  RH  057%=      5-min Rain = 0
KVP1 171646Z 01012KT 10/02 A3019 RMK A01 T01020019  RH  056%=      5-min Rain = 0
KVP1 171647Z 02012KT 10/02 A3019 RMK A01 T01020019  RH  057%=      5-min Rain = 0
KVP1 171648Z 02012KT 10/02 A3019 RMK A01 T01010019  RH  056%=      5-min Rain = 0
KVP1 171649Z 03012KT 10/02 A3019 RMK A01 T01020020  RH  056%=      5-min Rain = 0
KVP1 171650Z 02013KT 10/02 A3019 RMK A01 T01040021  RH  056%=      5-min Rain = 0
KVP1 171651Z 02010KT 10/02 A3019 RMK A01 T01030019  RH  056%=      5-min Rain = 0
KVP1 171652Z 03009KT 10/02 A3019 RMK A01 T01030020  RH  057%=      5-min Rain = 0
KVP1 171653Z 03010KT 11/02 A3019 RMK A01 T01050023  RH  057%=      5-min Rain = 0
KVP1 171654Z 02009KT 11/02 A3019 RMK A01 T01070021  RH  055%=      5-min Rain = 0
KVP1 171655Z 00009KT 11/02 A3019 RMK A01 T01100024  RH  055%=      5-min Rain = 0
KVP1 171656Z 36010KT 11/02 A3019 RMK A01 T01100022  RH  055%=      5-min Rain = 0
KVP1 171657Z 00011KT 11/02 A3019 RMK A01 T01060020  RH  055%=      5-min Rain = 0
KVP1 171658Z 35011KT 10/02 A3019 RMK A01 T01040020  RH  056%=      5-min Rain = 0
KVP1 171659Z 02010KT 11/02 A3019 RMK A01 T01060024  RH  057%=      5-min Rain = 0
KVP1 171700Z 02010KT 11/02 A3019 RMK A01 T01090023  RH  055%=      5-min Rain = 0
KVP1 171701Z 00007KT 11/02 A3019 RMK A01 T01120024  RH  055%=      5-min Rain = 0
KVP1 171702Z 01006KT 11/03 A3019 RMK A01 T01130025  RH  055%=      5-min Rain = 0
KVP1 171703Z 00009KT 12/02 A3019 RMK A01 T01150024  RH  054%=      5-min Rain = 0
KVP1 171704Z 00010KT 11/02 A3019 RMK A01 T01110020  RH  053%=      5-min Rain = 0
KVP1 171705Z 35011KT 11/02 A3019 RMK A01 T01070020  RH  055%=      5-min Rain = 0
KVP1 171706Z 35010KT 11/02 A3019 RMK A01 T01070021  RH  055%=      5-min Rain = 0
KVP1 171707Z 35010KT 11/02 A3019 RMK A01 T01070020  RH  055%=      5-min Rain = 0
KVP1 171708Z 35012KT 11/02 A3019 RMK A01 T01050020  RH  056%=      5-min Rain = 0
KVP1 171709Z 00011KT 11/02 A3019 RMK A01 T01050020  RH  056%=      5-min Rain = 0
KVP1 171710Z 36011KT 10/02 A3019 RMK A01 T01040021  RH  056%=      5-min Rain = 0
KVP1 171711Z 36011KT 11/02 A3019 RMK A01 T01070024  RH  056%=      5-min Rain = 0
KVP1 171712Z 01008KT 11/02 A3019 RMK A01 T01080022  RH  055%=      5-min Rain = 0
KVP1 171713Z 02008KT 11/02 A3019 RMK A01 T01080020  RH  055%=      5-min Rain = 0
KVP1 171714Z 02007KT 11/02 A3019 RMK A01 T01080020  RH  054%=      5-min Rain = 0
KVP1 171715Z 03009KT 11/02 A3019 RMK A01 T01100023  RH  055%=      5-min Rain = 0
KVP1 171716Z 03010KT 11/02 A3019 RMK A01 T01120021  RH  054%=      5-min Rain = 0
KVP1 171717Z 02011KT 11/02 A3019 RMK A01 T01120020  RH  053%=      5-min Rain = 0
KVP1 171718Z 35012KT 11/02 A3019 RMK A01 T01130022  RH  054%=      5-min Rain = 0
KVP1 171719Z 35008KT 11/02 A3019 RMK A01 T01120020  RH  053%=      5-min Rain = 0
KVP1 171720Z 01012KT 11/02 A3019 RMK A01 T01110020  RH  054%=      5-min Rain = 0
KVP1 171721Z 01010KT 11/02 A3018 RMK A01 T01110021  RH  054%=      5-min Rain = 0
KVP1 171722Z 35010KT 11/02 A3018 RMK A01 T01130021  RH  053%=      5-min Rain = 0
KVP1 171723Z 35010KT 11/02 A3018 RMK A01 T01130020  RH  053%=      5-min Rain = 0
KVP1 171724Z 35011KT 11/02 A3019 RMK A01 T01120020  RH  053%=      5-min Rain = 0
KVP1 171725Z 00011KT 11/02 A3019 RMK A01 T01120020  RH  053%=      5-min Rain = 0
KVP1 171726Z 36013KT 11/02 A3018 RMK A01 T01120019  RH  053%=      5-min Rain = 0
KVP1 171727Z 36011KT 11/02 A3018 RMK A01 T01120018  RH  052%=      5-min Rain = 0
KVP1 171728Z 35013KT 11/02 A3018 RMK A01 T01120019  RH  052%=      5-min Rain = 0
KVP1 171729Z 00012G17KT 11/02 A3018 RMK A01 T01120019  RH  052%=      5-min Rain = 0
KVP1 171730Z 01010KT 11/02 A3018 RMK A01 T01140020  RH  052%=      5-min Rain = 0
KVP1 171731Z 00011KT 12/02 A3018 RMK A01 T01150020  RH  052%=      5-min Rain = 0
KVP1 171732Z 36012KT 11/02 A3018 RMK A01 T01140018  RH  052%=      5-min Rain = 0
KVP1 171733Z 35010KT 11/02 A3018 RMK A01 T01140020  RH  052%=      5-min Rain = 0
KVP1 171734Z 35012KT 12/02 A3018 RMK A01 T01150020  RH  052%=      5-min Rain = 0
KVP1 171735Z 35013KT 12/02 A3018 RMK A01 T01160020  RH  052%=      5-min Rain = 0
KVP1 171736Z 35011KT 12/02 A3018 RMK A01 T01160020  RH  052%=      5-min Rain = 0
KVP1 171737Z 35011KT 12/02 A3018 RMK A01 T01150020  RH  052%=      5-min Rain = 0
KVP1 171738Z 00013KT 12/02 A3018 RMK A01 T01150019  RH  051%=      5-min Rain = 0
KVP1 171739Z 35013KT 12/02 A3018 RMK A01 T01150018  RH  051%=      5-min Rain = 0
KVP1 171740Z 00012KT 11/02 A3018 RMK A01 T01140017  RH  051%=      5-min Rain = 0
KVP1 171741Z 00009KT 11/02 A3018 RMK A01 T01130017  RH  051%=      5-min Rain = 0
KVP1 171742Z 01011KT 12/02 A3018 RMK A01 T01150020  RH  052%=      5-min Rain = 0
KVP1 171743Z 00014KT 12/02 A3019 RMK A01 T01170019  RH  051%=      5-min Rain = 0
KVP1 171744Z 01011KT 12/02 A3019 RMK A01 T01150017  RH  051%=      5-min Rain = 0
KVP1 171745Z 00010KT 11/02 A3019 RMK A01 T01130016  RH  051%=      5-min Rain = 0
KVP1 171746Z 36011KT 11/02 A3019 RMK A01 T01140019  RH  052%=      5-min Rain = 0
KVP1 171747Z 35013KT 12/02 A3018 RMK A01 T01160018  RH  051%=      5-min Rain = 0
KVP1 171748Z 36015KT 12/02 A3018 RMK A01 T01160018  RH  051%=      5-min Rain = 0
KVP1 171749Z 35014KT 12/02 A3019 RMK A01 T01160016  RH  050%=      5-min Rain = 0
KVP1 171750Z 00013KT 12/02 A3018 RMK A01 T01150015  RH  051%=      5-min Rain = 0
KVP1 171751Z 36012KT 11/02 A3018 RMK A01 T01140018  RH  051%=      5-min Rain = 0
KVP1 171752Z 00008KT 12/02 A3018 RMK A01 T01160019  RH  051%=      5-min Rain = 0
KVP1 171753Z 01011KT 12/02 A3018 RMK A01 T01180020  RH  051%=      5-min Rain = 0
KVP1 171754Z 00009KT 12/02 A3018 RMK A01 T01200020  RH  050%=      5-min Rain = 0
KVP1 171755Z 00012KT 12/02 A3018 RMK A01 T01200019  RH  050%=      5-min Rain = 0
KVP1 171756Z 00013KT 12/02 A3018 RMK A01 T01190017  RH  050%=      5-min Rain = 0
KVP1 171757Z 03010KT 12/02 A3018 RMK A01 T01190020  RH  050%=      5-min Rain = 0
KVP1 171758Z 03012G17KT 12/02 A3019 RMK A01 T01240022  RH  050%=      5-min Rain = 0
KVP1 171759Z 02010KT 12/02 A3019 RMK A01 T01240018  RH  048%=      5-min Rain = 0
KVP1 171800Z 35011KT 12/02 A3019 RMK A01 T01220017  RH  049%=      5-min Rain = 0
KVP1 171801Z 36013KT 12/02 A3019 RMK A01 T01200016  RH  049%=      5-min Rain = 0
KVP1 171802Z 02013KT 12/02 A3019 RMK A01 T01190017  RH  049%=      5-min Rain = 0
KVP1 171803Z 02014KT 12/02 A3018 RMK A01 T01190015  RH  049%=      5-min Rain = 0
KVP1 171804Z 00013KT 12/02 A3018 RMK A01 T01190018  RH  050%=      5-min Rain = 0
KVP1 171805Z 02012KT 12/02 A3018 RMK A01 T01200017  RH  049%=      5-min Rain = 0
KVP1 171806Z 03012KT 12/02 A3018 RMK A01 T01210017  RH  049%=      5-min Rain = 0
KVP1 171807Z 02010G15KT 12/02 A3018 RMK A01 T01210018  RH  049%=      5-min Rain = 0
KVP1 171808Z 02012G18KT 13/02 A3018 RMK A01 T01250021  RH  049%=      5-min Rain = 0
KVP1 171809Z 00013KT 13/02 A3018 RMK A01 T01270019  RH  048%=      5-min Rain = 0
KVP1 171810Z 35012KT 12/02 A3018 RMK A01 T01230016  RH  048%=      5-min Rain = 0
KVP1 171811Z 00013KT 12/02 A3018 RMK A01 T01210017  RH  049%=      5-min Rain = 0
KVP1 171812Z 01011KT 12/02 A3018 RMK A01 T01210018  RH  049%=      5-min Rain = 0
KVP1 171813Z 02012KT 12/02 A3018 RMK A01 T01220017  RH  049%=      5-min Rain = 0
KVP1 171814Z 01011KT 12/02 A3018 RMK A01 T01210017  RH  049%=      5-min Rain = 0
KVP1 171815Z 00008KT 12/02 A3018 RMK A01 T01200018  RH  050%=      5-min Rain = 0
KVP1 171816Z 01010G17KT 12/02 A3018 RMK A01 T01200018  RH  050%=      5-min Rain = 0
KVP1 171817Z 36013KT 12/02 A3018 RMK A01 T01220019  RH  049%=      5-min Rain = 0
KVP1 171818Z 00013KT 12/02 A3018 RMK A01 T01230019  RH  049%=      5-min Rain = 0
KVP1 171819Z 01012KT 12/02 A3018 RMK A01 T01230020  RH  049%=      5-min Rain = 0
KVP1 171820Z 36014KT 12/02 A3018 RMK A01 T01240020  RH  049%=      5-min Rain = 0
KVP1 171821Z 36014KT 12/02 A3018 RMK A01 T01240019  RH  049%=      5-min Rain = 0
KVP1 171822Z 35013KT 12/02 A3018 RMK A01 T01220017  RH  049%=      5-min Rain = 0
KVP1 171823Z 35011KT 12/02 A3018 RMK A01 T01190018  RH  050%=      5-min Rain = 0
KVP1 171824Z 01015KT 12/02 A3018 RMK A01 T01200019  RH  050%=      5-min Rain = 0
KVP1 171825Z 35011KT 12/02 A3018 RMK A01 T01210019  RH  050%=      5-min Rain = 0
KVP1 171826Z 01014KT 12/02 A3018 RMK A01 T01230021  RH  050%=      5-min Rain = 0
KVP1 171827Z 00012KT 12/02 A3018 RMK A01 T01240021  RH  049%=      5-min Rain = 0
KVP1 171828Z 00013KT 13/02 A3018 RMK A01 T01250021  RH  049%=      5-min Rain = 0
KVP1 171829Z 00013KT 13/02 A3018 RMK A01 T01250021  RH  049%=      5-min Rain = 0
KVP1 171830Z 01013KT 13/02 A3018 RMK A01 T01250021  RH  049%=      5-min Rain = 0
KVP1 171831Z 01012KT 12/02 A3018 RMK A01 T01220018  RH  049%=      5-min Rain = 0
KVP1 171832Z 01012KT 12/02 A3018 RMK A01 T01200019  RH  050%=      5-min Rain = 0
KVP1 171833Z 02013KT 12/02 A3018 RMK A01 T01220021  RH  050%=      5-min Rain = 0
KVP1 171834Z 02011G16KT 12/02 A3018 RMK A01 T01230020  RH  049%=      5-min Rain = 0
KVP1 171835Z 01009KT 12/02 A3018 RMK A01 T01240020  RH  049%=      5-min Rain = 0
KVP1 171836Z 01012KT 13/02 A3018 RMK A01 T01250022  RH  049%=      5-min Rain = 0
KVP1 171837Z 01009KT 13/02 A3018 RMK A01 T01270023  RH  049%=      5-min Rain = 0
KVP1 171838Z 01010KT 13/02 A3017 RMK A01 T01290023  RH  049%=      5-min Rain = 0
KVP1 171839Z 02011KT 13/02 A3017 RMK A01 T01280022  RH  048%=      5-min Rain = 0
KVP1 171840Z 03012KT 13/02 A3017 RMK A01 T01280022  RH  048%=      5-min Rain = 0
KVP1 171841Z 04013KT 13/02 A3017 RMK A01 T01260019  RH  048%=      5-min Rain = 0
KVP1 171842Z 03011KT 13/02 A3017 RMK A01 T01250020  RH  049%=      5-min Rain = 0
KVP1 171843Z 03010KT 13/02 A3017 RMK A01 T01270022  RH  049%=      5-min Rain = 0
KVP1 171844Z 03010KT 13/02 A3017 RMK A01 T01280021  RH  048%=      5-min Rain = 0
KVP1 171845Z 02009KT 13/02 A3017 RMK A01 T01260020  RH  048%=      5-min Rain = 0
KVP1 171846Z 36011KT 13/02 A3017 RMK A01 T01280024  RH  049%=      5-min Rain = 0
KVP1 171847Z 35009KT 13/02 A3017 RMK A01 T01300023  RH  048%=      5-min Rain = 0
KVP1 171848Z 35009KT 13/02 A3017 RMK A01 T01280022  RH  048%=      5-min Rain = 0
KVP1 171849Z 00010KT 13/03 A3017 RMK A01 T01280025  RH  049%=      5-min Rain = 0
KVP1 171850Z 35010KT 13/03 A3017 RMK A01 T01320026  RH  049%=      5-min Rain = 0
KVP1 171851Z 01010KT 13/02 A3017 RMK A01 T01320024  RH  048%=      5-min Rain = 0
KVP1 171852Z 02011KT 13/02 A3017 RMK A01 T01320024  RH  048%=      5-min Rain = 0
KVP1 171853Z 00012KT 13/02 A3017 RMK A01 T01340024  RH  047%=      5-min Rain = 0
KVP1 171854Z 01010KT 13/02 A3017 RMK A01 T01310020  RH  047%=      5-min Rain = 0
KVP1 171855Z 01010KT 13/02 A3017 RMK A01 T01280020  RH  048%=      5-min Rain = 0
KVP1 171856Z 35008KT 13/02 A3017 RMK A01 T01270021  RH  048%=      5-min Rain = 0
KVP1 171857Z 36010KT 13/02 A3016 RMK A01 T01270020  RH  048%=      5-min Rain = 0
KVP1 171858Z 01010KT 13/02 A3016 RMK A01 T01260020  RH  049%=      5-min Rain = 0
KVP1 171859Z 01007KT 13/02 A3016 RMK A01 T01270021  RH  049%=      5-min Rain = 0
KVP1 171900Z 00009KT 13/02 A3016 RMK A01 T01310024  RH  048%=      5-min Rain = 0
KVP1 171901Z 35012KT 13/02 A3016 RMK A01 T01330021  RH  047%=      5-min Rain = 0
KVP1 171902Z 35011KT 13/02 A3016 RMK A01 T01310021  RH  047%=      5-min Rain = 0
KVP1 171903Z 01011KT 13/02 A3016 RMK A01 T01300021  RH  047%=      5-min Rain = 0
KVP1 171904Z 01011KT 13/02 A3016 RMK A01 T01300021  RH  047%=      5-min Rain = 0
KVP1 171905Z 36009KT 13/02 A3015 RMK A01 T01280019  RH  047%=      5-min Rain = 0
KVP1 171906Z 02008KT 13/02 A3015 RMK A01 T01270019  RH  048%=      5-min Rain = 0
KVP1 171907Z 02011KT 13/02 A3015 RMK A01 T01280019  RH  047%=      5-min Rain = 0
KVP1 171908Z 01009KT 13/02 A3015 RMK A01 T01290019  RH  047%=      5-min Rain = 0
KVP1 171909Z 02009KT 13/02 A3015 RMK A01 T01300021  RH  047%=      5-min Rain = 0
KVP1 171910Z 02008KT 13/02 A3015 RMK A01 T01330022  RH  047%=      5-min Rain = 0
KVP1 171911Z 02011KT 13/02 A3015 RMK A01 T01340023  RH  047%=      5-min Rain = 0
KVP1 171912Z 01010KT 13/02 A3015 RMK A01 T01330020  RH  046%=      5-min Rain = 0
KVP1 171913Z 01010KT 13/02 A3015 RMK A01 T01320019  RH  046%=      5-min Rain = 0
KVP1 171914Z 01008KT 13/02 A3015 RMK A01 T01290018  RH  047%=      5-min Rain = 0
KVP1 171915Z 35012KT 13/02 A3015 RMK A01 T01290021  RH  048%=      5-min Rain = 0
KVP1 171916Z 01012KT 13/02 A3015 RMK A01 T01320020  RH  047%=      5-min Rain = 0
KVP1 171917Z 01011KT 13/02 A3015 RMK A01 T01330020  RH  046%=      5-min Rain = 0
KVP1 171918Z 02010KT 13/02 A3015 RMK A01 T01310016  RH  046%=      5-min Rain = 0
KVP1 171919Z 00009KT 13/02 A3015 RMK A01 T01300017  RH  046%=      5-min Rain = 0
KVP1 171920Z 00008KT 13/02 A3015 RMK A01 T01310020  RH  047%=      5-min Rain = 0
KVP1 171921Z 01007KT 13/02 A3015 RMK A01 T01320019  RH  046%=      5-min Rain = 0
KVP1 171922Z 02005KT 13/02 A3014 RMK A01 T01310018  RH  046%=      5-min Rain = 0
KVP1 171923Z 00003KT 13/02 A3014 RMK A01 T01300019  RH  047%=      5-min Rain = 0
KVP1 171924Z 01006KT 13/02 A3014 RMK A01 T01320022  RH  047%=      5-min Rain = 0
KVP1 171925Z 35006KT 13/02 A3014 RMK A01 T01330023  RH  047%=      5-min Rain = 0
KVP1 171926Z 01008KT 14/02 A3014 RMK A01 T01360023  RH  046%=      5-min Rain = 0
KVP1 171927Z 03010KT 14/02 A3014 RMK A01 T01370019  RH  045%=      5-min Rain = 0
KVP1 171928Z 03008KT 14/02 A3014 RMK A01 T01350018  RH  045%=      5-min Rain = 0
KVP1 171929Z 04006KT 13/02 A3014 RMK A01 T01330019  RH  046%=      5-min Rain = 0
KVP1 171930Z 02008KT 14/02 A3014 RMK A01 T01350019  RH  045%=      5-min Rain = 0
KVP1 171931Z 02010KT 13/02 A3014 RMK A01 T01330019  RH  046%=      5-min Rain = 0
KVP1 171932Z 03009KT 13/02 A3014 RMK A01 T01340020  RH  046%=      5-min Rain = 0
KVP1 171933Z 01010KT 14/02 A3014 RMK A01 T01360020  RH  046%=      5-min Rain = 0
KVP1 171934Z 36008KT 14/02 A3014 RMK A01 T01360019  RH  045%=      5-min Rain = 0
KVP1 171935Z 02006KT 13/02 A3014 RMK A01 T01340020  RH  046%=      5-min Rain = 0
KVP1 171936Z 03004KT 13/02 A3014 RMK A01 T01330018  RH  046%=      5-min Rain = 0
KVP1 171937Z 00004KT 13/02 A3014 RMK A01 T01310018  RH  046%=      5-min Rain = 0
KVP1 171938Z 00006KT 13/02 A3014 RMK A01 T01320020  RH  047%=      5-min Rain = 0
KVP1 171939Z 36010KT 13/02 A3014 RMK A01 T01320019  RH  046%=      5-min Rain = 0
KVP1 171940Z 36008KT 13/02 A3013 RMK A01 T01320019  RH  046%=      5-min Rain = 0
KVP1 171941Z 36008KT 13/02 A3013 RMK A01 T01310018  RH  046%=      5-min Rain = 0
KVP1 171942Z 01011KT 13/02 A3013 RMK A01 T01320018  RH  046%=      5-min Rain = 0
KVP1 171943Z 02011KT 13/02 A3013 RMK A01 T01340017  RH  045%=      5-min Rain = 0
KVP1 171944Z 02009KT 14/02 A3013 RMK A01 T01360017  RH  044%=      5-min Rain = 0
KVP1 171945Z 03009KT 14/02 A3013 RMK A01 T01390019  RH  044%=      5-min Rain = 0
KVP1 171946Z 04006KT 14/02 A3013 RMK A01 T01400017  RH  043%=      5-min Rain = 0
KVP1 171947Z 00009KT 14/02 A3013 RMK A01 T01380017  RH  044%=      5-min Rain = 0
KVP1 171948Z 34010KT 14/02 A3013 RMK A01 T01380019  RH  044%=      5-min Rain = 0
KVP1 171949Z 34010KT 14/02 A3012 RMK A01 T01370019  RH  045%=      5-min Rain = 0
KVP1 171950Z 34009KT 14/02 A3012 RMK A01 T01360019  RH  045%=      5-min Rain = 0
KVP1 171951Z 34007KT 14/02 A3012 RMK A01 T01360019  RH  045%=      5-min Rain = 0
KVP1 171952Z 34006KT 14/02 A3012 RMK A01 T01350018  RH  045%=      5-min Rain = 0
KVP1 171953Z 36010KT 14/02 A3012 RMK A01 T01360019  RH  045%=      5-min Rain = 0
KVP1 171954Z 36009KT 14/02 A3012 RMK A01 T01370018  RH  044%=      5-min Rain = 0
KVP1 171955Z 00007KT 14/01 A3012 RMK A01 T01370014  RH  043%=      5-min Rain = 0
KVP1 171956Z 35005KT 14/02 A3012 RMK A01 T01360015  RH  044%=      5-min Rain = 0
KVP1 171957Z 36007KT 14/02 A3012 RMK A01 T01360016  RH  044%=      5-min Rain = 0
KVP1 171958Z 35007KT 14/02 A3012 RMK A01 T01360016  RH  044%=      5-min Rain = 0
KVP1 171959Z 01009KT 14/02 A3012 RMK A01 T01380017  RH  044%=      5-min Rain = 0
KVP1 172000Z 36007KT 14/02 A3012 RMK A01 T01380015  RH  043%=      5-min Rain = 0
KVP1 172001Z 35007KT 14/02 A3012 RMK A01 T01380016  RH  044%=      5-min Rain = 0
KVP1 172002Z 01009KT 14/02 A3012 RMK A01 T01380016  RH  043%=      5-min Rain = 0
KVP1 172003Z 02011KT 14/02 A3012 RMK A01 T01400017  RH  043%=      5-min Rain = 0
KVP1 172004Z 02009KT 14/02 A3012 RMK A01 T01400015  RH  043%=      5-min Rain = 0
KVP1 172005Z 01008KT 14/02 A3012 RMK A01 T01390015  RH  043%=      5-min Rain = 0
KVP1 172006Z 02007KT 14/01 A3011 RMK A01 T01380012  RH  042%=      5-min Rain = 0
KVP1 172007Z 03005KT 14/01 A3011 RMK A01 T01380012  RH  043%=      5-min Rain = 0
KVP1 172008Z 00006KT 14/01 A3011 RMK A01 T01370013  RH  043%=      5-min Rain = 0
KVP1 172009Z 02007KT 14/02 A3011 RMK A01 T01380015  RH  043%=      5-min Rain = 0
KVP1 172010Z 03009KT 14/02 A3011 RMK A01 T01390015  RH  043%=      5-min Rain = 0
KVP1 172011Z 01008KT 14/02 A3011 RMK A01 T01390015  RH  043%=      5-min Rain = 0
KVP1 172012Z 03005KT 14/02 A3011 RMK A01 T01370015  RH  044%=      5-min Rain = 0
KVP1 172013Z 03005KT 14/02 A3011 RMK A01 T01360015  RH  044%=      5-min Rain = 0
KVP1 172014Z 02004KT 14/02 A3011 RMK A01 T01360017  RH  044%=      5-min Rain = 0
KVP1 172015Z 34004KT 14/02 A3011 RMK A01 T01390018  RH  044%=      5-min Rain = 0
KVP1 172016Z 34003KT 14/01 A3011 RMK A01 T01390014  RH  043%=      5-min Rain = 0
KVP1 172017Z 01003KT 14/02 A3011 RMK A01 T01380015  RH  043%=      5-min Rain = 0
KVP1 172018Z 35004KT 14/02 A3011 RMK A01 T01380016  RH  044%=      5-min Rain = 0
KVP1 172019Z 36008KT 14/02 A3011 RMK A01 T01390015  RH  043%=      5-min Rain = 0
KVP1 172020Z 03006KT 14/02 A3011 RMK A01 T01390015  RH  043%=      5-min Rain = 0
KVP1 172021Z 04003KT 14/02 A3011 RMK A01 T01400015  RH  043%=      5-min Rain = 0
KVP1 172022Z 04005KT 14/02 A3011 RMK A01 T01410016  RH  043%=      5-min Rain = 0
KVP1 172023Z 05005KT 14/02 A3011 RMK A01 T01430015  RH  042%=      5-min Rain = 0
KVP1 172024Z 02007KT 14/01 A3011 RMK A01 T01430014  RH  041%=      5-min Rain = 0
KVP1 172025Z 03005KT 14/02 A3011 RMK A01 T01440018  RH  043%=      5-min Rain = 0
KVP1 172026Z 34007KT 15/02 A3011 RMK A01 T01470019  RH  042%=      5-min Rain = 0
KVP1 172027Z 35007KT 15/02 A3011 RMK A01 T01460020  RH  043%=      5-min Rain = 0
KVP1 172028Z 34006KT 15/02 A3011 RMK A01 T01450018  RH  042%=      5-min Rain = 0
KVP1 172029Z 35007KT 14/02 A3011 RMK A01 T01430018  RH  043%=      5-min Rain = 0
KVP1 172030Z 35007KT 14/02 A3011 RMK A01 T01430020  RH  043%=      5-min Rain = 0
KVP1 172031Z 00007KT 14/02 A3011 RMK A01 T01430018  RH  043%=      5-min Rain = 0
KVP1 172032Z 00005KT 14/02 A3011 RMK A01 T01420016  RH  042%=      5-min Rain = 0
KVP1 172033Z 01005KT 14/01 A3011 RMK A01 T01400014  RH  042%=      5-min Rain = 0
KVP1 172034Z 33006KT 14/02 A3011 RMK A01 T01390017  RH  043%=      5-min Rain = 0
KVP1 172035Z 34007KT 14/02 A3011 RMK A01 T01410019  RH  044%=      5-min Rain = 0
KVP1 172036Z 33006KT 14/02 A3011 RMK A01 T01420016  RH  042%=      5-min Rain = 0
KVP1 172037Z 36006KT 14/02 A301 RMK A01 T01410015  RH  042%=      5-min Rain = 0
KVP1 172038Z 03007KT 14/02 A301 RMK A01 T01420016  RH  043%=      5-min Rain = 0
KVP1 172039Z 05006KT 14/01 A301 RMK A01 T01430012  RH  041%=      5-min Rain = 0
KVP1 172040Z 06007KT 14/01 A301 RMK A01 T01420009  RH  040%=      5-min Rain = 0
KVP1 172041Z 03008KT 14/01 A301 RMK A01 T01430014  RH  042%=      5-min Rain = 0
KVP1 172042Z 04005KT 14/01 A301 RMK A01 T01440014  RH  041%=      5-min Rain = 0
KVP1 172043Z 05005KT 14/01 A301 RMK A01 T01430011  RH  041%=      5-min Rain = 0
KVP1 172044Z 04004KT 14/01 A301 RMK A01 T01420011  RH  041%=      5-min Rain = 0
KVP1 172045Z 02007KT 14/01 A301 RMK A01 T01420012  RH  041%=      5-min Rain = 0
KVP1 172046Z 01007KT 14/01 A301 RMK A01 T01430013  RH  041%=      5-min Rain = 0
KVP1 172047Z 35006KT 15/01 A301 RMK A01 T01450014  RH  041%=      5-min Rain = 0
KVP1 172048Z 00005KT 14/01 A301 RMK A01 T01430010  RH  040%=      5-min Rain = 0
KVP1 172049Z 01004KT 14/01 A301 RMK A01 T01420010  RH  041%=      5-min Rain = 0
KVP1 172050Z 03005KT 14/01 A301 RMK A01 T01410011  RH  041%=      5-min Rain = 0
KVP1 172051Z 01003KT 14/01 A301 RMK A01 T01410011  RH  041%=      5-min Rain = 0
KVP1 172052Z 01003KT 14/01 A301 RMK A01 T01400011  RH  041%=      5-min Rain = 0
KVP1 172053Z 01004KT 14/01 A301 RMK A01 T01400013  RH  042%=      5-min Rain = 0
KVP1 172054Z 02006KT 14/02 A301 RMK A01 T01420015  RH  042%=      5-min Rain = 0
KVP1 172055Z 02005KT 14/01 A301 RMK A01 T01420013  RH  041%=      5-min Rain = 0
KVP1 172056Z 01005KT 14/02 A301 RMK A01 T01420015  RH  042%=      5-min Rain = 0
KVP1 172057Z 33004KT 14/01 A301 RMK A01 T01440014  RH  041%=      5-min Rain = 0
KVP1 172058Z 35002KT 14/01 A301 RMK A01 T01440013  RH  041%=      5-min Rain = 0
KVP1 172059Z 34003KT 14/01 A301 RMK A01 T01440014  RH  041%=      5-min Rain = 0
KVP1 172100Z 33006KT 14/02 A301 RMK A01 T01440016  RH  042%=      5-min Rain = 0
KVP1 172101Z 32007KT 14/01 A301 RMK A01 T01440014  RH  041%=      5-min Rain = 0
KVP1 172102Z 31005KT 14/02 A301 RMK A01 T01440015  RH  042%=      5-min Rain = 0
KVP1 172103Z 31005KT 15/01 A301 RMK A01 T01450014  RH  041%=      5-min Rain = 0
KVP1 172104Z 31004KT 15/01 A301 RMK A01 T01450013  RH  041%=      5-min Rain = 0
KVP1 172105Z 30002KT 14/01 A301 RMK A01 T01440013  RH  041%=      5-min Rain = 0
KVP1 172106Z 33004KT 14/01 A301 RMK A01 T01440014  RH  041%=      5-min Rain = 0
KVP1 172107Z 34005KT 14/01 A301 RMK A01 T01440013  RH  041%=      5-min Rain = 0
KVP1 172108Z 33007KT 15/01 A301 RMK A01 T01450013  RH  041%=      5-min Rain = 0
KVP1 172109Z 33007KT 14/01 A301 RMK A01 T01440011  RH  040%=      5-min Rain = 0
KVP1 172110Z 33006KT 14/01 A301 RMK A01 T01440011  RH  040%=      5-min Rain = 0
KVP1 172111Z 34007KT 14/01 A301 RMK A01 T01440012  RH  041%=      5-min Rain = 0
KVP1 172112Z 34007KT 15/01 A301 RMK A01 T01450012  RH  040%=      5-min Rain = 0
KVP1 172113Z 33005KT 14/01 A301 RMK A01 T01440012  RH  041%=      5-min Rain = 0
KVP1 172114Z 34007KT 14/01 A3009 RMK A01 T01440013  RH  041%=      5-min Rain = 0
KVP1 172115Z 01005KT 14/01 A3009 RMK A01 T01440013  RH  041%=      5-min Rain = 0
KVP1 172116Z 36004KT 14/01 A301 RMK A01 T01440011  RH  040%=      5-min Rain = 0
KVP1 172117Z 01004KT 14/01 A3009 RMK A01 T01430011  RH  041%=      5-min Rain = 0
KVP1 172118Z 02002KT 14/01 A3009 RMK A01 T01430009  RH  040%=      5-min Rain = 0
KVP1 172119Z 04001KT 14/01 A3009 RMK A01 T01420011  RH  041%=      5-min Rain = 0
KVP1 172120Z 35002KT 14/01 A3009 RMK A01 T01430010  RH  040%=      5-min Rain = 0
KVP1 172121Z 35002KT 14/01 A3009 RMK A01 T01430008  RH  040%=      5-min Rain = 0
KVP1 172122Z 01001KT 14/01 A3009 RMK A01 T01420008  RH  040%=      5-min Rain = 0
KVP1 172123Z 36002KT 14/01 A3009 RMK A01 T01430010  RH  040%=      5-min Rain = 0
KVP1 172124Z 35004KT 14/01 A3009 RMK A01 T01440010  RH  040%=      5-min Rain = 0
KVP1 172125Z 36006KT 14/01 A3009 RMK A01 T01440009  RH  040%=      5-min Rain = 0
KVP1 172126Z 36005KT 14/01 A3009 RMK A01 T01440008  RH  040%=      5-min Rain = 0
KVP1 172127Z 00006KT 14/01 A3009 RMK A01 T01430008  RH  040%=      5-min Rain = 0
KVP1 172128Z 35005KT 14/01 A3009 RMK A01 T01430010  RH  040%=      5-min Rain = 0
KVP1 172129Z 35004KT 14/01 A3009 RMK A01 T01430011  RH  041%=      5-min Rain = 0
KVP1 172130Z 35004KT 14/01 A3009 RMK A01 T01440013  RH  041%=      5-min Rain = 0
KVP1 172131Z 02006KT 15/01 A3009 RMK A01 T01480013  RH  040%=      5-min Rain = 0
KVP1 172132Z 02005KT 15/01 A3009 RMK A01 T01470008  RH  039%=      5-min Rain = 0
KVP1 172133Z 34004KT 15/01 A3009 RMK A01 T01470012  RH  040%=      5-min Rain = 0
KVP1 172134Z 33007KT 15/01 A3009 RMK A01 T01470012  RH  040%=      5-min Rain = 0
KVP1 172135Z 33007KT 15/01 A3009 RMK A01 T01480014  RH  040%=      5-min Rain = 0
KVP1 172136Z 31006KT 15/01 A3009 RMK A01 T01480011  RH  039%=      5-min Rain = 0
KVP1 172137Z 32005KT 15/01 A3009 RMK A01 T01460009  RH  039%=      5-min Rain = 0
KVP1 172138Z 32005KT 15/01 A3009 RMK A01 T01460011  RH  040%=      5-min Rain = 0
KVP1 172139Z 31004KT 15/01 A3009 RMK A01 T01470011  RH  040%=      5-min Rain = 0
KVP1 172140Z 35004KT 15/01 A3009 RMK A01 T01460011  RH  040%=      5-min Rain = 0
KVP1 172141Z 36001KT 15/01 A3009 RMK A01 T01460010  RH  040%=      5-min Rain = 0
KVP1 172142Z 33002KT 15/01 A3009 RMK A01 T01450011  RH  040%=      5-min Rain = 0
KVP1 172143Z 34005KT 15/01 A3009 RMK A01 T01460012  RH  040%=      5-min Rain = 0
KVP1 172144Z 35007KT 15/01 A3009 RMK A01 T01470012  RH  040%=      5-min Rain = 0
KVP1 172145Z 35007KT 15/01 A3009 RMK A01 T01470012  RH  040%=      5-min Rain = 0
KVP1 172146Z 34005KT 15/01 A3009 RMK A01 T01460010  RH  040%=      5-min Rain = 0
KVP1 172147Z 34006KT 15/01 A3009 RMK A01 T01460012  RH  040%=      5-min Rain = 0
KVP1 172148Z 34005KT 15/01 A3009 RMK A01 T01450010  RH  040%=      5-min Rain = 0
KVP1 172149Z 34005KT 15/01 A3009 RMK A01 T01450011  RH  040%=      5-min Rain = 0
KVP1 172150Z 33004KT 15/01 A3009 RMK A01 T01450009  RH  040%=      5-min Rain = 0
KVP1 172151Z 32004KT 14/01 A3009 RMK A01 T01440009  RH  040%=      5-min Rain = 0
KVP1 172152Z 31002KT 15/01 A3009 RMK A01 T01450009  RH  040%=      5-min Rain = 0
KVP1 172153Z 31000KT 14/01 A3009 RMK A01 T01440008  RH  039%=      5-min Rain = 0
KVP1 172154Z 00000KT 15/01 A3009 RMK A01 T01450009  RH  039%=      5-min Rain = 0
KVP1 172155Z 00000KT 15/01 A3009 RMK A01 T01470008  RH  039%=      5-min Rain = 0
KVP1 172156Z 31000KT 15/01 A3009 RMK A01 T01500010  RH  039%=      5-min Rain = 0
KVP1 172157Z 30001KT 15/01 A3009 RMK A01 T01510008  RH  038%=      5-min Rain = 0
KVP1 172158Z 32003KT 15/01 A3009 RMK A01 T01510009  RH  038%=      5-min Rain = 0
KVP1 172159Z 34004KT 15/01 A3009 RMK A01 T01510013  RH  039%=      5-min Rain = 0
KVP1 172200Z 33004KT 15/01 A3009 RMK A01 T01510010  RH  038%=      5-min Rain = 0
KVP1 172201Z 30003KT 15/01 A3009 RMK A01 T01490009  RH  038%=      5-min Rain = 0
KVP1 172202Z 32003KT 15/01 A3009 RMK A01 T01480008  RH  038%=      5-min Rain = 0
KVP1 172203Z 34005KT 15/01 A3009 RMK A01 T01460007  RH  039%=      5-min Rain = 0
KVP1 172204Z 34006KT 15/01 A3009 RMK A01 T01460009  RH  039%=      5-min Rain = 0
KVP1 172205Z 35006KT 15/01 A3009 RMK A01 T01460009  RH  039%=      5-min Rain = 0
KVP1 172206Z 34005KT 15/01 A3009 RMK A01 T01450008  RH  039%=      5-min Rain = 0
KVP1 172207Z 34002KT 14/01 A3009 RMK A01 T01440007  RH  039%=      5-min Rain = 0
KVP1 172208Z 00003KT 14/01 A3009 RMK A01 T01440011  RH  040%=      5-min Rain = 0
KVP1 172209Z 35004KT 15/01 A3009 RMK A01 T01450008  RH  039%=      5-min Rain = 0
KVP1 172210Z 33005KT 15/01 A3009 RMK A01 T01450009  RH  040%=      5-min Rain = 0
KVP1 172211Z 34005KT 15/01 A3009 RMK A01 T01460007  RH  039%=      5-min Rain = 0
KVP1 172212Z 35004KT 14/01 A301 RMK A01 T01440006  RH  039%=      5-min Rain = 0
KVP1 172213Z 35003KT 14/01 A301 RMK A01 T01440007  RH  039%=      5-min Rain = 0
KVP1 172214Z 35003KT 14/01 A301 RMK A01 T01430006  RH  039%=      5-min Rain = 0
KVP1 172215Z 31001KT 14/01 A301 RMK A01 T01430008  RH  040%=      5-min Rain = 0
KVP1 172216Z 34001KT 14/01 A301 RMK A01 T01440010  RH  040%=      5-min Rain = 0
KVP1 172217Z 33003KT 15/01 A301 RMK A01 T01450008  RH  039%=      5-min Rain = 0
KVP1 172218Z 32002KT 15/01 A301 RMK A01 T01450007  RH  039%=      5-min Rain = 0
KVP1 172219Z 32001KT 15/01 A301 RMK A01 T01450008  RH  039%=      5-min Rain = 0
KVP1 172220Z 31000KT 15/01 A301 RMK A01 T01450008  RH  039%=      5-min Rain = 0
KVP1 172221Z 03000KT 15/01 A301 RMK A01 T01460008  RH  039%=      5-min Rain = 0
KVP1 172222Z 00001KT 15/01 A301 RMK A01 T01460007  RH  039%=      5-min Rain = 0
KVP1 172223Z 34001KT 15/01 A301 RMK A01 T01460008  RH  039%=      5-min Rain = 0
KVP1 172224Z 02004KT 15/01 A3009 RMK A01 T01460010  RH  039%=      5-min Rain = 0
KVP1 172225Z 36004KT 15/01 A3009 RMK A01 T01460009  RH  039%=      5-min Rain = 0
KVP1 172226Z 36002KT 15/01 A301 RMK A01 T01450008  RH  039%=      5-min Rain = 0
KVP1 172227Z 00000KT 14/01 A301 RMK A01 T01440009  RH  040%=      5-min Rain = 0
KVP1 172228Z 21000KT 14/01 A301 RMK A01 T01440008  RH  039%=      5-min Rain = 0
KVP1 172229Z 21000KT 15/01 A301 RMK A01 T01450008  RH  039%=      5-min Rain = 0
KVP1 172230Z 00000KT 15/01 A301 RMK A01 T01480009  RH  039%=      5-min Rain = 0
KVP1 172231Z 32002KT 15/01 A301 RMK A01 T01500009  RH  038%=      5-min Rain = 0
KVP1 172232Z 32004KT 15/01 A301 RMK A01 T01510008  RH  038%=      5-min Rain = 0
KVP1 172233Z 00005KT 15/01 A301 RMK A01 T01500009  RH  038%=      5-min Rain = 0
KVP1 172234Z 34003KT 15/01 A301 RMK A01 T01470008  RH  039%=      5-min Rain = 0
KVP1 172235Z 33004KT 15/01 A301 RMK A01 T01460009  RH  039%=      5-min Rain = 0
KVP1 172236Z 32004KT 15/01 A301 RMK A01 T01460005  RH  038%=      5-min Rain = 0
KVP1 172237Z 33005KT 15/01 A301 RMK A01 T01460006  RH  038%=      5-min Rain = 0
KVP1 172238Z 33004KT 15/00 A301 RMK A01 T01450004  RH  038%=      5-min Rain = 0
KVP1 172239Z 33004KT 14/00 A301 RMK A01 T01440004  RH  038%=      5-min Rain = 0
KVP1 172240Z 32004KT 14/01 A301 RMK A01 T01440005  RH  039%=      5-min Rain = 0
KVP1 172241Z 33003KT 14/00 A301 RMK A01 T01430004  RH  038%=      5-min Rain = 0
KVP1 172242Z 33004KT 14/00 A301 RMK A01 T01430004  RH  039%=      5-min Rain = 0
KVP1 172243Z 32003KT 14/00 A301 RMK A01 T01430001  RH  038%=      5-min Rain = 0
KVP1 172244Z 33004KT 14/00 A301 RMK A01 T01430002  RH  038%=      5-min Rain = 0
KVP1 172245Z 33004KT 14/00 A301 RMK A01 T01430002  RH  038%=      5-min Rain = 0
KVP1 172246Z 00003KT 14/00 A301 RMK A01 T01420002  RH  038%=      5-min Rain = 0
KVP1 172247Z 36004KT 14/00 A301 RMK A01 T01420002  RH  038%=      5-min Rain = 0
KVP1 172248Z 35003KT 14/00 A301 RMK A01 T01420002  RH  038%=      5-min Rain = 0
KVP1 172249Z 36004KT 14/00 A301 RMK A01 T01420002  RH  038%=      5-min Rain = 0
KVP1 172250Z 33002KT 14/00 A301 RMK A01 T01410001  RH  038%=      5-min Rain = 0
KVP1 172251Z 33003KT 14/00 A301 RMK A01 T01410004  RH  039%=      5-min Rain = 0
KVP1 172252Z 34003KT 14/00 A301 RMK A01 T01410004  RH  039%=      5-min Rain = 0
KVP1 172253Z 33004KT 14/01 A301 RMK A01 T01410005  RH  039%=      5-min Rain = 0
KVP1 172254Z 33004KT 14/01 A301 RMK A01 T01410005  RH  039%=      5-min Rain = 0
KVP1 172255Z 34004KT 14/00 A301 RMK A01 T01400004  RH  039%=      5-min Rain = 0
KVP1 172256Z 34004KT 14/01 A301 RMK A01 T01390006  RH  040%=      5-min Rain = 0
KVP1 172257Z 34003KT 14/01 A301 RMK A01 T01390006  RH  040%=      5-min Rain = 0
KVP1 172258Z 33004KT 14/01 A301 RMK A01 T01390006  RH  040%=      5-min Rain = 0
KVP1 172259Z 33003KT 14/01 A301 RMK A01 T01380006  RH  041%=      5-min Rain = 0
KVP1 172300Z 33003KT 14/01 A301 RMK A01 T01380007  RH  041%=      5-min Rain = 0
KVP1 172301Z 33003KT 14/01 A301 RMK A01 T01370007  RH  041%=      5-min Rain = 0
KVP1 172302Z 34003KT 14/01 A301 RMK A01 T01370007  RH  041%=      5-min Rain = 0
KVP1 172303Z 35003KT 14/01 A301 RMK A01 T01370006  RH  041%=      5-min Rain = 0
KVP1 172304Z 35003KT 14/01 A301 RMK A01 T01360006  RH  041%=      5-min Rain = 0
KVP1 172305Z 34002KT 14/01 A301 RMK A01 T01360005  RH  041%=      5-min Rain = 0
KVP1 172306Z 34002KT 14/01 A301 RMK A01 T01360005  RH  041%=      5-min Rain = 0
KVP1 172307Z 34002KT 14/01 A301 RMK A01 T01360005  RH  041%=      5-min Rain = 0
KVP1 172308Z 35002KT 14/01 A301 RMK A01 T01360005  RH  041%=      5-min Rain = 0
KVP1 172309Z 00002KT 14/00 A301 RMK A01 T01350004  RH  041%=      5-min Rain = 0
KVP1 172310Z 00001KT 14/00 A301 RMK A01 T01350003  RH  040%=      5-min Rain = 0
KVP1 172311Z 00001KT 14/00 A301 RMK A01 T01350003  RH  041%=      5-min Rain = 0
KVP1 172312Z 35001KT 14/00 A301 RMK A01 T01350004  RH  041%=      5-min Rain = 0
KVP1 172313Z 00001KT 14/00 A301 RMK A01 T01350004  RH  041%=      5-min Rain = 0
KVP1 172314Z 36001KT 14/00 A301 RMK A01 T01350004  RH  041%=      5-min Rain = 0
KVP1 172315Z 35002KT 14/00 A301 RMK A01 T01350003  RH  041%=      5-min Rain = 0
KVP1 172316Z 35002KT 13/00 A301 RMK A01 T01340003  RH  041%=      5-min Rain = 0
KVP1 172317Z 34002KT 13/00 A301 RMK A01 T01340004  RH  041%=      5-min Rain = 0
KVP1 172318Z 33002KT 13/00 A301 RMK A01 T01330004  RH  041%=      5-min Rain = 0
KVP1 172319Z 33002KT 13/00 A301 RMK A01 T01320004  RH  041%=      5-min Rain = 0
KVP1 172320Z 32002KT 13/00 A301 RMK A01 T01310004  RH  042%=      5-min Rain = 0
KVP1 172321Z 31002KT 13/01 A301 RMK A01 T01310005  RH  042%=      5-min Rain = 0
KVP1 172322Z 31002KT 13/01 A301 RMK A01 T01300005  RH  042%=      5-min Rain = 0
KVP1 172323Z 31002KT 13/01 A301 RMK A01 T01290005  RH  043%=      5-min Rain = 0
KVP1 172324Z 30002KT 13/01 A301 RMK A01 T01290006  RH  043%=      5-min Rain = 0
KVP1 172325Z 30002KT 13/01 A301 RMK A01 T01280005  RH  043%=      5-min Rain = 0
KVP1 172326Z 30002KT 13/01 A301 RMK A01 T01280005  RH  043%=      5-min Rain = 0
KVP1 172327Z 30001KT 13/00 A301 RMK A01 T01260004  RH  043%=      5-min Rain = 0
KVP1 172328Z 29002KT 13/01 A301 RMK A01 T01260005  RH  043%=      5-min Rain = 0
KVP1 172329Z 29001KT 13/01 A301 RMK A01 T01250005  RH  044%=      5-min Rain = 0
KVP1 172330Z 28002KT 13/01 A301 RMK A01 T01250005  RH  044%=      5-min Rain = 0
KVP1 172331Z 28002KT 12/00 A301 RMK A01 T01230004  RH  044%=      5-min Rain = 0
KVP1 172332Z 27002KT 12/00 A301 RMK A01 T01220004  RH  044%=      5-min Rain = 0
KVP1 172333Z 26002KT 12/00 A301 RMK A01 T01220004  RH  044%=      5-min Rain = 0
KVP1 172334Z 25001KT 12/00 A301 RMK A01 T01210003  RH  044%=      5-min Rain = 0
KVP1 172335Z 25002KT 12/00 A301 RMK A01 T01210003  RH  044%=      5-min Rain = 0
KVP1 172336Z 25002KT 12/00 A301 RMK A01 T01220004  RH  044%=      5-min Rain = 0
KVP1 172337Z 24002KT 12/00 A301 RMK A01 T01220004  RH  044%=      5-min Rain = 0
KVP1 172338Z 25002KT 12/00 A301 RMK A01 T01210003  RH  044%=      5-min Rain = 0
KVP1 172339Z 25002KT 12/00 A301 RMK A01 T01210003  RH  044%=      5-min Rain = 0
KVP1 172340Z 26002KT 12/00 A301 RMK A01 T01210003  RH  044%=      5-min Rain = 0
KVP1 172341Z 27003KT 12/00 A301 RMK A01 T01190003  RH  045%=      5-min Rain = 0
KVP1 172342Z 27003KT 12/00 A301 RMK A01 T01180003  RH  045%=      5-min Rain = 0
KVP1 172343Z 27003KT 12/00 A301 RMK A01 T01170003  RH  045%=      5-min Rain = 0
KVP1 172344Z 27003KT 12/00 A301 RMK A01 T01170003  RH  046%=      5-min Rain = 0
KVP1 172345Z 27003KT 12/00 A301 RMK A01 T01160003  RH  046%=      5-min Rain = 0
KVP1 172346Z 27003KT 12/00 A301 RMK A01 T01150003  RH  046%=      5-min Rain = 0
KVP1 172347Z 27003KT 11/00 A301 RMK A01 T01140003  RH  046%=      5-min Rain = 0
KVP1 172348Z 27003KT 11/00 A301 RMK A01 T01140003  RH  046%=      5-min Rain = 0
KVP1 172349Z 26002KT 11/00 A301 RMK A01 T01140004  RH  047%=      5-min Rain = 0
KVP1 172350Z 26002KT 11/00 A301 RMK A01 T01140004  RH  047%=      5-min Rain = 0
KVP1 172351Z 26002KT 11/00 A301 RMK A01 T01130004  RH  047%=      5-min Rain = 0
KVP1 172352Z 27002KT 11/00 A301 RMK A01 T01130003  RH  047%=      5-min Rain = 0
KVP1 172353Z 28002KT 11/00 A301 RMK A01 T01120003  RH  047%=      5-min Rain = 0
KVP1 172354Z 28002KT 11/00 A301 RMK A01 T01110003  RH  047%=      5-min Rain = 0
KVP1 172355Z 29002KT 11/00 A301 RMK A01 T01100003  RH  047%=      5-min Rain = 0
KVP1 172356Z 30002KT 11/00 A301 RMK A01 T01090003  RH  048%=      5-min Rain = 0
KVP1 172357Z 30002KT 11/00 A301 RMK A01 T01080002  RH  048%=      5-min Rain = 0
KVP1 172358Z 30002KT 10/00 A301 RMK A01 T01040000  RH  048%=      5-min Rain = 0
KVP1 172359Z 30002KT 10/00 A301 RMK A01 T01010001  RH  050%=      5-min Rain = 0
KVP1 180000Z 30002KT 10/00 A301 RMK A01 T01010002  RH  050%=      5-min Rain = 0
KVP1 180001Z 29002KT 10/00 A301 RMK A01 T01010003  RH  051%=      5-min Rain = 0
KVP1 180002Z 29002KT 10/00 A301 RMK A01 T01010003  RH  051%=      5-min Rain = 0
KVP1 180003Z 29002KT 10/00 A301 RMK A01 T01000003  RH  051%=      5-min Rain = 0
KVP1 180004Z 29002KT 10/00 A301 RMK A01 T01010003  RH  051%=      5-min Rain = 0
KVP1 180005Z 28002KT 10/00 A301 RMK A01 T01000003  RH  051%=      5-min Rain = 0
KVP1 180006Z 28002KT 10/00 A301 RMK A01 T01000003  RH  051%=      5-min Rain = 0
KVP1 180007Z 28002KT 10/00 A301 RMK A01 T01000003  RH  051%=      5-min Rain = 0
KVP1 180008Z 28002KT 10/00 A301 RMK A01 T01000003  RH  051%=      5-min Rain = 0
KVP1 180009Z 28002KT 10/00 A301 RMK A01 T00990003  RH  051%=      5-min Rain = 0
KVP1 180010Z 28002KT 10/00 A301 RMK A01 T00980002  RH  052%=      5-min Rain = 0
KVP1 180011Z 28002KT 10/00 A301 RMK A01 T00960002  RH  052%=      5-min Rain = 0
KVP1 180012Z 28002KT 10/00 A301 RMK A01 T00950002  RH  052%=      5-min Rain = 0
KVP1 180013Z 28002KT 09/00 A301 RMK A01 T00930002  RH  053%=      5-min Rain = 0
KVP1 180014Z 28002KT 09/00 A301 RMK A01 T00920002  RH  053%=      5-min Rain = 0
KVP1 180015Z 28002KT 09/00 A301 RMK A01 T00910002  RH  054%=      5-min Rain = 0
KVP1 180016Z 28001KT 09/00 A301 RMK A01 T00900002  RH  054%=      5-min Rain = 0
KVP1 180017Z 28001KT 09/00 A301 RMK A01 T00890002  RH  054%=      5-min Rain = 0
KVP1 180018Z 28002KT 09/00 A301 RMK A01 T00890003  RH  055%=      5-min Rain = 0
KVP1 180019Z 28001KT 09/00 A301 RMK A01 T00890003  RH  055%=      5-min Rain = 0
KVP1 180020Z 27001KT 09/00 A301 RMK A01 T00890002  RH  055%=      5-min Rain = 0
KVP1 180021Z 27002KT 09/00 A301 RMK A01 T00890002  RH  055%=      5-min Rain = 0
KVP1 180022Z 27002KT 09/00 A301 RMK A01 T00890003  RH  055%=      5-min Rain = 0
KVP1 180023Z 27002KT 09/00 A301 RMK A01 T00900004  RH  055%=      5-min Rain = 0
KVP1 180024Z 27002KT 09/01 A301 RMK A01 T00910005  RH  055%=      5-min Rain = 0
KVP1 180025Z 27003KT 09/00 A301 RMK A01 T00930004  RH  054%=      5-min Rain = 0
KVP1 180026Z 27002KT 09/00 A301 RMK A01 T00940003  RH  053%=      5-min Rain = 0
KVP1 180027Z 27002KT 09/00 A301 RMK A01 T00940003  RH  053%=      5-min Rain = 0
KVP1 180028Z 27002KT 10/00 A301 RMK A01 T00950002  RH  053%=      5-min Rain = 0
KVP1 180029Z 27002KT 10/00 A301 RMK A01 T00950002  RH  052%=      5-min Rain = 0
KVP1 180030Z 27002KT 10/00 A301 RMK A01 T00950002  RH  052%=      5-min Rain = 0
KVP1 180031Z 26002KT 10/00 A301 RMK A01 T00950002  RH  052%=      5-min Rain = 0
KVP1 180032Z 26002KT 10/00 A301 RMK A01 T00950003  RH  052%=      5-min Rain = 0
KVP1 180033Z 26002KT 10/00 A301 RMK A01 T00950003  RH  053%=      5-min Rain = 0
KVP1 180034Z 26002KT 09/00 A301 RMK A01 T00940003  RH  053%=      5-min Rain = 0
KVP1 180035Z 26002KT 09/00 A301 RMK A01 T00920003  RH  054%=      5-min Rain = 0
KVP1 180036Z 26002KT 09/00 A301 RMK A01 T00910003  RH  054%=      5-min Rain = 0
KVP1 180037Z 26002KT 09/00 A301 RMK A01 T00900003  RH  054%=      5-min Rain = 0
KVP1 180038Z 26002KT 09/00 A301 RMK A01 T00900003  RH  054%=      5-min Rain = 0
KVP1 180039Z 26001KT 09/00 A301 RMK A01 T00900003  RH  054%=      5-min Rain = 0
KVP1 180040Z 25002KT 09/00 A301 RMK A01 T00920003  RH  054%=      5-min Rain = 0
KVP1 180041Z 26003KT 09/00 A301 RMK A01 T00930003  RH  054%=      5-min Rain = 0
KVP1 180042Z 27003KT 09/00 A301 RMK A01 T00930003  RH  053%=      5-min Rain = 0
KVP1 180043Z 27003KT 09/00 A301 RMK A01 T00930003  RH  053%=      5-min Rain = 0
KVP1 180044Z 27003KT 09/00 A301 RMK A01 T00930002  RH  053%=      5-min Rain = 0
KVP1 180045Z 27002KT 09/00 A301 RMK A01 T00930003  RH  053%=      5-min Rain = 0
KVP1 180046Z 27002KT 09/00 A301 RMK A01 T00930002  RH  053%=      5-min Rain = 0
KVP1 180047Z 28002KT 09/00 A301 RMK A01 T00930002  RH  053%=      5-min Rain = 0
KVP1 180048Z 28002KT 09/00 A301 RMK A01 T00920002  RH  053%=      5-min Rain = 0
KVP1 180049Z 28002KT 09/00 A301 RMK A01 T00910002  RH  054%=      5-min Rain = 0
KVP1 180050Z 28002KT 09/00 A301 RMK A01 T00890002  RH  054%=      5-min Rain = 0
KVP1 180051Z 28002KT 09/00 A301 RMK A01 T00890001  RH  054%=      5-min Rain = 0
KVP1 180052Z 27002KT 09/00 A301 RMK A01 T00880000  RH  054%=      5-min Rain = 0
KVP1 180053Z 26002KT 08/M00 A301 RMK A01 T00831004  RH  054%=      5-min Rain = 0
KVP1 180054Z 25002KT 08/M00 A301 RMK A01 T00791001  RH  057%=      5-min Rain = 0
KVP1 180055Z 23003KT 08/00 A301 RMK A01 T00790002  RH  058%=      5-min Rain = 0
KVP1 180056Z 21003KT 08/00 A301 RMK A01 T00820004  RH  058%=      5-min Rain = 0
KVP1 180057Z 21003KT 08/01 A3011 RMK A01 T00830005  RH  058%=      5-min Rain = 0
KVP1 180058Z 23004KT 08/00 A3011 RMK A01 T00830003  RH  057%=      5-min Rain = 0
KVP1 180059Z 24004KT 08/00 A3011 RMK A01 T00820001  RH  057%=      5-min Rain = 0
KVP1 180100Z 24004KT 08/00 A3011 RMK A01 T00820001  RH  057%=      5-min Rain = 0
KVP1 180101Z 24004KT 08/00 A3011 RMK A01 T008000-0  RH  057%=      5-min Rain = 0
KVP1 180102Z 25003KT 08/00 A3011 RMK A01 T00780000  RH  058%=      5-min Rain = 0
KVP1 180103Z 25003KT 08/00 A3011 RMK A01 T00770001  RH  059%=      5-min Rain = 0
KVP1 180104Z 25003KT 08/00 A3011 RMK A01 T00760001  RH  059%=      5-min Rain = 0
KVP1 180105Z 25003KT 08/00 A3011 RMK A01 T00750002  RH  060%=      5-min Rain = 0
KVP1 180106Z 25003KT 08/00 A3011 RMK A01 T00750003  RH  060%=      5-min Rain = 0
KVP1 180107Z 25003KT 08/01 A3011 RMK A01 T00750006  RH  062%=      5-min Rain = 0
KVP1 180108Z 25003KT 08/01 A3011 RMK A01 T00770007  RH  061%=      5-min Rain = 0
KVP1 180109Z 25003KT 08/00 A3011 RMK A01 T00770004  RH  060%=      5-min Rain = 0
KVP1 180110Z 25003KT 08/01 A3011 RMK A01 T00770005  RH  060%=      5-min Rain = 0
KVP1 180111Z 25003KT 08/00 A3011 RMK A01 T00770004  RH  060%=      5-min Rain = 0
KVP1 180112Z 25002KT 08/00 A3011 RMK A01 T00770003  RH  060%=      5-min Rain = 0
KVP1 180113Z 25002KT 08/01 A3011 RMK A01 T00760005  RH  061%=      5-min Rain = 0
KVP1 180114Z 25002KT 08/01 A3011 RMK A01 T00770006  RH  061%=      5-min Rain = 0
KVP1 180115Z 25002KT 08/01 A3011 RMK A01 T00770005  RH  060%=      5-min Rain = 0
KVP1 180116Z 25002KT 08/01 A3011 RMK A01 T00770006  RH  061%=      5-min Rain = 0
KVP1 180117Z 25002KT 08/01 A3011 RMK A01 T00770006  RH  061%=      5-min Rain = 0
KVP1 180118Z 25002KT 08/01 A3011 RMK A01 T00760006  RH  061%=      5-min Rain = 0
KVP1 180119Z 25002KT 08/01 A3011 RMK A01 T00760006  RH  061%=      5-min Rain = 0
KVP1 180120Z 25002KT 08/01 A3011 RMK A01 T00760006  RH  061%=      5-min Rain = 0
KVP1 180121Z 24002KT 08/01 A3011 RMK A01 T00760007  RH  061%=      5-min Rain = 0
KVP1 180122Z 24002KT 08/01 A3011 RMK A01 T00760007  RH  062%=      5-min Rain = 0
KVP1 180123Z 24002KT 08/01 A3011 RMK A01 T00750006  RH  061%=      5-min Rain = 0
KVP1 180124Z 24002KT 07/01 A3011 RMK A01 T00740005  RH  062%=      5-min Rain = 0
KVP1 180125Z 24002KT 07/01 A3011 RMK A01 T00720006  RH  063%=      5-min Rain = 0
KVP1 180126Z 24002KT 07/01 A3012 RMK A01 T00720006  RH  063%=      5-min Rain = 0
KVP1 180127Z 24002KT 07/01 A3011 RMK A01 T00710006  RH  063%=      5-min Rain = 0
KVP1 180128Z 24002KT 07/01 A3011 RMK A01 T00700005  RH  063%=      5-min Rain = 0
KVP1 180129Z 23004KT 07/01 A3011 RMK A01 T00690005  RH  063%=      5-min Rain = 0
KVP1 180130Z 23003KT 07/00 A3011 RMK A01 T00670003  RH  064%=      5-min Rain = 0
KVP1 180131Z 23004KT 06/M00 A3011 RMK A01 T00631001  RH  063%=      5-min Rain = 0
KVP1 180132Z 23004KT 06/00 A3011 RMK A01 T00610001  RH  065%=      5-min Rain = 0
KVP1 180133Z 23003KT 06/00 A3011 RMK A01 T00620002  RH  066%=      5-min Rain = 0
KVP1 180134Z 23004KT 06/00 A3011 RMK A01 T00620001  RH  065%=      5-min Rain = 0
KVP1 180135Z 23004KT 06/00 A3011 RMK A01 T00610001  RH  065%=      5-min Rain = 0
KVP1 180136Z 23004KT 06/00 A3011 RMK A01 T00610001  RH  065%=      5-min Rain = 0
KVP1 180137Z 24003KT 06/00 A3011 RMK A01 T00610000  RH  065%=      5-min Rain = 0
KVP1 180138Z 24003KT 06/00 A3012 RMK A01 T006100-0  RH  065%=      5-min Rain = 0
KVP1 180139Z 24003KT 06/M00 A3012 RMK A01 T00601001  RH  065%=      5-min Rain = 0
KVP1 180140Z 24003KT 06/M00 A3012 RMK A01 T00581002  RH  065%=      5-min Rain = 0
KVP1 180141Z 23003KT 06/M00 A3012 RMK A01 T00571002  RH  066%=      5-min Rain = 0
KVP1 180142Z 23004KT 06/M00 A3012 RMK A01 T00551003  RH  066%=      5-min Rain = 0
KVP1 180143Z 23004KT 05/M00 A3012 RMK A01 T00541003  RH  067%=      5-min Rain = 0
KVP1 180144Z 22004KT 05/M00 A3012 RMK A01 T00521004  RH  067%=      5-min Rain = 0
KVP1 180145Z 22004KT 05/M00 A3012 RMK A01 T00501004  RH  068%=      5-min Rain = 0
KVP1 180146Z 23004KT 05/M01 A3012 RMK A01 T00481006  RH  068%=      5-min Rain = 0
KVP1 180147Z 23003KT 05/M01 A3012 RMK A01 T00461008  RH  068%=      5-min Rain = 0
KVP1 180148Z 22003KT 04/M01 A3012 RMK A01 T00441007  RH  069%=      5-min Rain = 0
KVP1 180149Z 22004KT 04/M01 A3012 RMK A01 T00441006  RH  070%=      5-min Rain = 0
KVP1 180150Z 22004KT 05/M00 A3012 RMK A01 T00451004  RH  071%=      5-min Rain = 0
KVP1 180151Z 22004KT 05/M00 A3012 RMK A01 T00471002  RH  071%=      5-min Rain = 0
KVP1 180152Z 22004KT 05/M00 A3012 RMK A01 T00481001  RH  071%=      5-min Rain = 0
KVP1 180153Z 22004KT 05/M00 A3012 RMK A01 T00501002  RH  069%=      5-min Rain = 0
KVP1 180154Z 22004KT 05/M00 A3012 RMK A01 T00501003  RH  069%=      5-min Rain = 0
KVP1 180155Z 22004KT 05/M00 A3012 RMK A01 T00501002  RH  069%=      5-min Rain = 0
KVP1 180156Z 22004KT 05/M00 A3012 RMK A01 T00491004  RH  069%=      5-min Rain = 0
KVP1 180157Z 22004KT 05/M00 A3012 RMK A01 T00481004  RH  069%=      5-min Rain = 0
KVP1 180158Z 22004KT 05/M00 A3012 RMK A01 T00471003  RH  070%=      5-min Rain = 0
KVP1 180159Z 22004KT 05/M00 A3012 RMK A01 T00471002  RH  070%=      5-min Rain = 0
KVP1 180200Z 22004KT 05/M00 A3012 RMK A01 T00481001  RH  070%=      5-min Rain = 0
KVP1 180201Z 22004KT 05/M00 A3012 RMK A01 T00491002  RH  069%=      5-min Rain = 0
KVP1 180202Z 22003KT 05/M00 A3012 RMK A01 T00491004  RH  069%=      5-min Rain = 0
KVP1 180203Z 22004KT 05/M01 A3012 RMK A01 T00491005  RH  068%=      5-min Rain = 0
KVP1 180204Z 22004KT 05/M01 A3012 RMK A01 T00481005  RH  069%=      5-min Rain = 0
KVP1 180205Z 21004KT 05/M00 A3012 RMK A01 T00481003  RH  070%=      5-min Rain = 0
KVP1 180206Z 21004KT 05/M00 A3012 RMK A01 T00481001  RH  070%=      5-min Rain = 0
KVP1 180207Z 21003KT 05/M00 A3012 RMK A01 T00491001  RH  070%=      5-min Rain = 0
KVP1 180208Z 21003KT 05/M00 A3012 RMK A01 T00501002  RH  069%=      5-min Rain = 0
KVP1 180209Z 21004KT 05/M00 A3012 RMK A01 T00511002  RH  069%=      5-min Rain = 0
KVP1 180210Z 21004KT 05/M00 A3011 RMK A01 T00531001  RH  068%=      5-min Rain = 0
KVP1 180211Z 21004KT 06/00 A3011 RMK A01 T00570001  RH  067%=      5-min Rain = 0
KVP1 180212Z 20004KT 06/00 A3011 RMK A01 T00610002  RH  066%=      5-min Rain = 0
KVP1 180213Z 20003KT 06/00 A3011 RMK A01 T00640002  RH  064%=      5-min Rain = 0
KVP1 180214Z 20003KT 07/00 A3011 RMK A01 T00670001  RH  063%=      5-min Rain = 0
KVP1 180215Z 20004KT 07/00 A3011 RMK A01 T00680000  RH  062%=      5-min Rain = 0
KVP1 180216Z 20004KT 07/00 A3012 RMK A01 T006700-0  RH  062%=      5-min Rain = 0
KVP1 180217Z 20003KT 07/00 A3012 RMK A01 T006600-0  RH  063%=      5-min Rain = 0
KVP1 180218Z 20003KT 07/00 A3012 RMK A01 T006600-0  RH  063%=      5-min Rain = 0
KVP1 180219Z 20003KT 07/00 A3012 RMK A01 T006600-0  RH  062%=      5-min Rain = 0
KVP1 180220Z 20003KT 07/00 A3012 RMK A01 T006700-0  RH  062%=      5-min Rain = 0
KVP1 180221Z 20003KT 07/00 A3011 RMK A01 T006800-0  RH  062%=      5-min Rain = 0
KVP1 180222Z 20004KT 07/00 A3011 RMK A01 T006900-0  RH  061%=      5-min Rain = 0
KVP1 180223Z 20004KT 07/00 A3011 RMK A01 T006900-0  RH  061%=      5-min Rain = 0
KVP1 180224Z 21004KT 07/M00 A3011 RMK A01 T00681001  RH  061%=      5-min Rain = 0
KVP1 180225Z 21004KT 07/M00 A3011 RMK A01 T00681001  RH  061%=      5-min Rain = 0
KVP1 180226Z 21004KT 07/M00 A3011 RMK A01 T00681001  RH  061%=      5-min Rain = 0
KVP1 180227Z 21005KT 07/M00 A3011 RMK A01 T00681001  RH  061%=      5-min Rain = 0
KVP1 180228Z 22005KT 07/M00 A3011 RMK A01 T00681002  RH  061%=      5-min Rain = 0
KVP1 180229Z 22005KT 07/M00 A3011 RMK A01 T00681002  RH  061%=      5-min Rain = 0
KVP1 180230Z 22005KT 07/M00 A3011 RMK A01 T00671003  RH  061%=      5-min Rain = 0
KVP1 180231Z 22006KT 06/M00 A3011 RMK A01 T00641004  RH  062%=      5-min Rain = 0
KVP1 180232Z 22006KT 06/M01 A3011 RMK A01 T00611005  RH  062%=      5-min Rain = 0
KVP1 180233Z 22006KT 06/M01 A3011 RMK A01 T00581007  RH  063%=      5-min Rain = 0
KVP1 180234Z 22005KT 06/M01 A3011 RMK A01 T00551008  RH  064%=      5-min Rain = 0
KVP1 180235Z 22005KT 05/M01 A3011 RMK A01 T00521009  RH  065%=      5-min Rain = 0
KVP1 180236Z 22005KT 05/M01 A3011 RMK A01 T00491009  RH  066%=      5-min Rain = 0
KVP1 180237Z 22005KT 05/M01 A3011 RMK A01 T00471010  RH  067%=      5-min Rain = 0
KVP1 180238Z 21005KT 05/M01 A3011 RMK A01 T00461010  RH  067%=      5-min Rain = 0
KVP1 180239Z 21005KT 05/M01 A3011 RMK A01 T00451010  RH  068%=      5-min Rain = 0
KVP1 180240Z 21005KT 04/M01 A3011 RMK A01 T00431011  RH  068%=      5-min Rain = 0
KVP1 180241Z 21005KT 04/M01 A3011 RMK A01 T00421011  RH  068%=      5-min Rain = 0
KVP1 180242Z 21005KT 04/M01 A3011 RMK A01 T00411011  RH  069%=      5-min Rain = 0
KVP1 180243Z 21005KT 04/M01 A3011 RMK A01 T00411010  RH  069%=      5-min Rain = 0
KVP1 180244Z 21005KT 04/M01 A3011 RMK A01 T00411010  RH  069%=      5-min Rain = 0
KVP1 180245Z 21005KT 04/M01 A3011 RMK A01 T00421009  RH  069%=      5-min Rain = 0
KVP1 180246Z 21006KT 04/M01 A3011 RMK A01 T00441008  RH  069%=      5-min Rain = 0
KVP1 180247Z 21006KT 05/M01 A3011 RMK A01 T00461008  RH  068%=      5-min Rain = 0
KVP1 180248Z 21006KT 05/M01 A3011 RMK A01 T00471007  RH  068%=      5-min Rain = 0
KVP1 180249Z 22006KT 05/M01 A3011 RMK A01 T00481007  RH  067%=      5-min Rain = 0
KVP1 180250Z 22006KT 05/M01 A3011 RMK A01 T00481008  RH  067%=      5-min Rain = 0
KVP1 180251Z 22007KT 05/M01 A3011 RMK A01 T00471009  RH  067%=      5-min Rain = 0
KVP1 180252Z 22006KT 05/M01 A3011 RMK A01 T00461009  RH  068%=      5-min Rain = 0
KVP1 180253Z 22006KT 05/M01 A3011 RMK A01 T00451008  RH  068%=      5-min Rain = 0
KVP1 180254Z 22006KT 05/M01 A3011 RMK A01 T00451008  RH  068%=      5-min Rain = 0
KVP1 180255Z 22006KT 04/M01 A3011 RMK A01 T00441009  RH  068%=      5-min Rain = 0
KVP1 180256Z 22005KT 04/M01 A3011 RMK A01 T00431010  RH  069%=      5-min Rain = 0
KVP1 180257Z 22005KT 04/M01 A3011 RMK A01 T00421010  RH  069%=      5-min Rain = 0
KVP1 180258Z 22005KT 04/M01 A3011 RMK A01 T00411010  RH  070%=      5-min Rain = 0
KVP1 180259Z 22005KT 04/M01 A3011 RMK A01 T00411009  RH  070%=      5-min Rain = 0
KVP1 180300Z 22005KT 04/M01 A3011 RMK A01 T00401010  RH  070%=      5-min Rain = 0
KVP1 180301Z 22005KT 04/M01 A3011 RMK A01 T00391010  RH  070%=      5-min Rain = 0
KVP1 180302Z 22005KT 04/M01 A3011 RMK A01 T00381011  RH  070%=      5-min Rain = 0
KVP1 180303Z 22005KT 04/M01 A3011 RMK A01 T00371011  RH  071%=      5-min Rain = 0
KVP1 180304Z 22005KT 04/M01 A3011 RMK A01 T00361011  RH  071%=      5-min Rain = 0
KVP1 180305Z 22004KT 04/M01 A3011 RMK A01 T00361011  RH  072%=      5-min Rain = 0
KVP1 180306Z 22004KT 04/M01 A3012 RMK A01 T00361010  RH  072%=      5-min Rain = 0
KVP1 180307Z 22005KT 04/M01 A3012 RMK A01 T00351010  RH  072%=      5-min Rain = 0
KVP1 180308Z 22005KT 04/M01 A3012 RMK A01 T00351010  RH  072%=      5-min Rain = 0
KVP1 180309Z 22005KT 04/M01 A3012 RMK A01 T00351011  RH  072%=      5-min Rain = 0
KVP1 180310Z 22005KT 04/M01 A3012 RMK A01 T00361011  RH  072%=      5-min Rain = 0
KVP1 180311Z 22005KT 04/M01 A3012 RMK A01 T00361011  RH  072%=      5-min Rain = 0
KVP1 180312Z 22006KT 04/M01 A3012 RMK A01 T00351011  RH  072%=      5-min Rain = 0
KVP1 180313Z 23006KT 04/M01 A3012 RMK A01 T00351011  RH  072%=      5-min Rain = 0
KVP1 180314Z 22005KT 03/M01 A3012 RMK A01 T00341011  RH  072%=      5-min Rain = 0
KVP1 180315Z 22005KT 03/M01 A3012 RMK A01 T00341011  RH  072%=      5-min Rain = 0
KVP1 180316Z 22005KT 03/M01 A3012 RMK A01 T00341011  RH  072%=      5-min Rain = 0
KVP1 180317Z 22005KT 03/M01 A3012 RMK A01 T00331012  RH  072%=      5-min Rain = 0
KVP1 180318Z 23005KT 03/M01 A3012 RMK A01 T00331012  RH  072%=      5-min Rain = 0
KVP1 180319Z 23005KT 03/M01 A3012 RMK A01 T00331012  RH  073%=      5-min Rain = 0
KVP1 180320Z 23005KT 03/M01 A3012 RMK A01 T00331011  RH  073%=      5-min Rain = 0
KVP1 180321Z 22004KT 03/M01 A3012 RMK A01 T00341010  RH  073%=      5-min Rain = 0
KVP1 180322Z 22004KT 04/M01 A3012 RMK A01 T00351010  RH  072%=      5-min Rain = 0
KVP1 180323Z 22004KT 04/M01 A3012 RMK A01 T00361009  RH  072%=      5-min Rain = 0
KVP1 180324Z 23004KT 04/M01 A3012 RMK A01 T00371009  RH  072%=      5-min Rain = 0
KVP1 180325Z 23004KT 04/M01 A3012 RMK A01 T00381009  RH  072%=      5-min Rain = 0
KVP1 180326Z 23004KT 04/M01 A3012 RMK A01 T00381009  RH  071%=      5-min Rain = 0
KVP1 180327Z 23004KT 04/M01 A3012 RMK A01 T00381009  RH  071%=      5-min Rain = 0
KVP1 180328Z 23004KT 04/M01 A3012 RMK A01 T00381009  RH  071%=      5-min Rain = 0
KVP1 180329Z 23004KT 04/M01 A3012 RMK A01 T00381009  RH  071%=      5-min Rain = 0
KVP1 180330Z 22004KT 04/M01 A3012 RMK A01 T00381009  RH  071%=      5-min Rain = 0
KVP1 180331Z 22004KT 04/M01 A3012 RMK A01 T00381009  RH  072%=      5-min Rain = 0
KVP1 180332Z 22004KT 04/M01 A3012 RMK A01 T00381008  RH  072%=      5-min Rain = 0
KVP1 180333Z 23004KT 04/M01 A3012 RMK A01 T00381008  RH  072%=      5-min Rain = 0
KVP1 180334Z 23004KT 04/M01 A3012 RMK A01 T00381009  RH  072%=      5-min Rain = 0
KVP1 180335Z 23004KT 04/M01 A3012 RMK A01 T00381008  RH  071%=      5-min Rain = 0
KVP1 180336Z 23004KT 04/M01 A3012 RMK A01 T00381009  RH  071%=      5-min Rain = 0
KVP1 180337Z 23004KT 04/M01 A3012 RMK A01 T00381009  RH  071%=      5-min Rain = 0
KVP1 180338Z 23005KT 04/M01 A3012 RMK A01 T00381009  RH  071%=      5-min Rain = 0
KVP1 180339Z 23005KT 04/M01 A3012 RMK A01 T00381009  RH  071%=      5-min Rain = 0
KVP1 180340Z 23005KT 04/M01 A3011 RMK A01 T00381009  RH  071%=      5-min Rain = 0
KVP1 180341Z 23005KT 04/M01 A3011 RMK A01 T00381010  RH  071%=      5-min Rain = 0
KVP1 180342Z 23005KT 04/M01 A3011 RMK A01 T00381010  RH  071%=      5-min Rain = 0
KVP1 180343Z 23005KT 04/M01 A3011 RMK A01 T00381010  RH  071%=      5-min Rain = 0
KVP1 180344Z 23005KT 04/M01 A3011 RMK A01 T00381010  RH  071%=      5-min Rain = 0
KVP1 180345Z 23005KT 04/M01 A3011 RMK A01 T00381010  RH  071%=      5-min Rain = 0
KVP1 180346Z 23005KT 04/M01 A3011 RMK A01 T00381010  RH  071%=      5-min Rain = 0
KVP1 180347Z 23005KT 04/M01 A3011 RMK A01 T00381010  RH  071%=      5-min Rain = 0
KVP1 180348Z 23006KT 04/M01 A3011 RMK A01 T00381010  RH  071%=      5-min Rain = 0
KVP1 180349Z 23005KT 04/M01 A3011 RMK A01 T00381010  RH  071%=      5-min Rain = 0
KVP1 180350Z 23005KT 04/M01 A3011 RMK A01 T00371010  RH  071%=      5-min Rain = 0
KVP1 180351Z 23005KT 04/M01 A3011 RMK A01 T00381009  RH  072%=      5-min Rain = 0
KVP1 180352Z 23005KT 04/M01 A3011 RMK A01 T00381008  RH  072%=      5-min Rain = 0
KVP1 180353Z 23005KT 04/M01 A3011 RMK A01 T00391008  RH  072%=      5-min Rain = 0
KVP1 180354Z 23005KT 04/M01 A3011 RMK A01 T00391008  RH  071%=      5-min Rain = 0
KVP1 180355Z 23005KT 04/M01 A3011 RMK A01 T00401008  RH  071%=      5-min Rain = 0
KVP1 180356Z 23006KT 04/M01 A3011 RMK A01 T00401008  RH  071%=      5-min Rain = 0
KVP1 180357Z 23006KT 04/M01 A3011 RMK A01 T00401008  RH  071%=      5-min Rain = 0
KVP1 180358Z 23006KT 04/M01 A3011 RMK A01 T00391008  RH  071%=      5-min Rain = 0
KVP1 180359Z 23006KT 04/M01 A3011 RMK A01 T00391009  RH  071%=      5-min Rain = 0
KVP1 180400Z 23006KT 04/M01 A3011 RMK A01 T00371010  RH  071%=      5-min Rain = 0
KVP1 180401Z 23006KT 04/M01 A3011 RMK A01 T00361011  RH  071%=      5-min Rain = 0
KVP1 180402Z 23007KT 03/M01 A3011 RMK A01 T00341013  RH  072%=      5-min Rain = 0
KVP1 180403Z 23007KT 03/M01 A3011 RMK A01 T00321014  RH  072%=      5-min Rain = 0
KVP1 180404Z 23007KT 03/M02 A301 RMK A01 T00301015  RH  073%=      5-min Rain = 0
KVP1 180405Z 23007KT 03/M02 A301 RMK A01 T00271015  RH  074%=      5-min Rain = 0
KVP1 180406Z 23007KT 03/M02 A301 RMK A01 T00251016  RH  075%=      5-min Rain = 0
KVP1 180407Z 22007KT 02/M02 A301 RMK A01 T00231016  RH  076%=      5-min Rain = 0
KVP1 180408Z 22007KT 02/M02 A301 RMK A01 T00221015  RH  077%=      5-min Rain = 0
KVP1 180409Z 22007KT 02/M02 A301 RMK A01 T00211015  RH  078%=      5-min Rain = 0
KVP1 180410Z 22007KT 02/M01 A301 RMK A01 T00201014  RH  078%=      5-min Rain = 0
KVP1 180411Z 22006KT 02/M01 A301 RMK A01 T00201013  RH  079%=      5-min Rain = 0
KVP1 180412Z 22006KT 02/M01 A301 RMK A01 T00201013  RH  079%=      5-min Rain = 0
KVP1 180413Z 22007KT 02/M01 A301 RMK A01 T00201013  RH  079%=      5-min Rain = 0
KVP1 180414Z 23007KT 02/M01 A301 RMK A01 T00201013  RH  079%=      5-min Rain = 0
KVP1 180415Z 23007KT 02/M01 A301 RMK A01 T00201012  RH  079%=      5-min Rain = 0
KVP1 180416Z 23007KT 02/M01 A301 RMK A01 T00191013  RH  079%=      5-min Rain = 0
KVP1 180417Z 23007KT 02/M01 A301 RMK A01 T00191013  RH  079%=      5-min Rain = 0
KVP1 180418Z 23007KT 02/M01 A3009 RMK A01 T00191014  RH  079%=      5-min Rain = 0
KVP1 180419Z 23007KT 02/M01 A3009 RMK A01 T00181014  RH  080%=      5-min Rain = 0
KVP1 180420Z 23007KT 02/M01 A3009 RMK A01 T00181013  RH  080%=      5-min Rain = 0
KVP1 180421Z 23006KT 02/M01 A3009 RMK A01 T00181013  RH  080%=      5-min Rain = 0
KVP1 180422Z 23006KT 02/M01 A3009 RMK A01 T00181013  RH  080%=      5-min Rain = 0
KVP1 180423Z 23006KT 02/M01 A3009 RMK A01 T00181013  RH  080%=      5-min Rain = 0
KVP1 180424Z 23006KT 02/M01 A3009 RMK A01 T00181013  RH  080%=      5-min Rain = 0
KVP1 180425Z 23006KT 02/M01 A3009 RMK A01 T00181013  RH  080%=      5-min Rain = 0
KVP1 180426Z 23006KT 02/M01 A3009 RMK A01 T00181013  RH  080%=      5-min Rain = 0
KVP1 180427Z 23006KT 02/M01 A3009 RMK A01 T00181013  RH  080%=      5-min Rain = 0
KVP1 180428Z 23006KT 02/M01 A3009 RMK A01 T00181013  RH  080%=      5-min Rain = 0
KVP1 180429Z 23006KT 02/M01 A3009 RMK A01 T00181012  RH  080%=      5-min Rain = 0
KVP1 180430Z 23007KT 02/M01 A3009 RMK A01 T00191012  RH  080%=      5-min Rain = 0
KVP1 180431Z 23006KT 02/M01 A3009 RMK A01 T00191013  RH  079%=      5-min Rain = 0
KVP1 180432Z 23006KT 02/M01 A3009 RMK A01 T00201012  RH  079%=      5-min Rain = 0
KVP1 180433Z 23007KT 02/M01 A3009 RMK A01 T00211012  RH  079%=      5-min Rain = 0
KVP1 180434Z 23007KT 02/M01 A3009 RMK A01 T00221013  RH  078%=      5-min Rain = 0
KVP1 180435Z 23008KT 02/M01 A3009 RMK A01 T00221013  RH  078%=      5-min Rain = 0
KVP1 180436Z 23008KT 02/M01 A3009 RMK A01 T00231013  RH  077%=      5-min Rain = 0
KVP1 180437Z 23008KT 02/M02 A3009 RMK A01 T00231015  RH  076%=      5-min Rain = 0
KVP1 180438Z 23009KT 02/M02 A3009 RMK A01 T00201017  RH  076%=      5-min Rain = 0
KVP1 180439Z 23009KT 02/M02 A3009 RMK A01 T00181017  RH  078%=      5-min Rain = 0
KVP1 180440Z 23009KT 02/M02 A3009 RMK A01 T00171015  RH  079%=      5-min Rain = 0
KVP1 180441Z 23009KT 02/M02 A3008 RMK A01 T00171015  RH  080%=      5-min Rain = 0
KVP1 180442Z 23010KT 02/M01 A3008 RMK A01 T00171014  RH  080%=      5-min Rain = 0
KVP1 180443Z 23010KT 02/M01 A3008 RMK A01 T00171012  RH  081%=      5-min Rain = 0
KVP1 180444Z 23010KT 02/M01 A3008 RMK A01 T00181011  RH  081%=      5-min Rain = 0
KVP1 180445Z 23010KT 02/M01 A3008 RMK A01 T00191010  RH  081%=      5-min Rain = 0
KVP1 180446Z 23009KT 02/M01 A3008 RMK A01 T00201009  RH  081%=      5-min Rain = 0
KVP1 180447Z 23009KT 02/M01 A3008 RMK A01 T00201010  RH  080%=      5-min Rain = 0
KVP1 180448Z 23010KT 02/M01 A3008 RMK A01 T00211011  RH  080%=      5-min Rain = 0
KVP1 180449Z 23010KT 02/M01 A3008 RMK A01 T00201011  RH  079%=      5-min Rain = 0
KVP1 180450Z 23010KT 02/M01 A3008 RMK A01 T00191013  RH  079%=      5-min Rain = 0
KVP1 180451Z 23010KT 02/M01 A3008 RMK A01 T00181014  RH  079%=      5-min Rain = 0
KVP1 180452Z 23010KT 02/M01 A3008 RMK A01 T00171014  RH  080%=      5-min Rain = 0
KVP1 180453Z 23009KT 02/M01 A3008 RMK A01 T00181013  RH  080%=      5-min Rain = 0
KVP1 180454Z 23009KT 02/M01 A3008 RMK A01 T00181013  RH  080%=      5-min Rain = 0
KVP1 180455Z 23009KT 02/M01 A3008 RMK A01 T00171013  RH  080%=      5-min Rain = 0
KVP1 180456Z 23008KT 02/M01 A3008 RMK A01 T00171013  RH  080%=      5-min Rain = 0
KVP1 180457Z 23008KT 02/M01 A3008 RMK A01 T00181012  RH  081%=      5-min Rain = 0
KVP1 180458Z 23008KT 02/M01 A3008 RMK A01 T00171013  RH  081%=      5-min Rain = 0
KVP1 180459Z 23008KT 02/M01 A3008 RMK A01 T00171013  RH  081%=      5-min Rain = 0
KVP1 180500Z 23008KT 02/M01 A3008 RMK A01 T00171012  RH  081%=      5-min Rain = 0
KVP1 180501Z 23008KT 02/M01 A3008 RMK A01 T00171012  RH  081%=      5-min Rain = 0
KVP1 180502Z 23008KT 02/M01 A3008 RMK A01 T00181012  RH  081%=      5-min Rain = 0
KVP1 180503Z 23008KT 02/M01 A3008 RMK A01 T00181012  RH  081%=      5-min Rain = 0
KVP1 180504Z 23008KT 02/M01 A3008 RMK A01 T00181013  RH  080%=      5-min Rain = 0
KVP1 180505Z 23008KT 02/M01 A3008 RMK A01 T00181013  RH  080%=      5-min Rain = 0
KVP1 180506Z 23008KT 02/M01 A3008 RMK A01 T00181013  RH  080%=      5-min Rain = 0
KVP1 180507Z 23008KT 02/M01 A3008 RMK A01 T00171014  RH  080%=      5-min Rain = 0
KVP1 180508Z 23008KT 02/M02 A3008 RMK A01 T00161015  RH  080%=      5-min Rain = 0
KVP1 180509Z 23008KT 02/M01 A3008 RMK A01 T00161014  RH  081%=      5-min Rain = 0
KVP1 180510Z 23008KT 02/M01 A3008 RMK A01 T00151014  RH  081%=      5-min Rain = 0
KVP1 180511Z 23007KT 02/M01 A3008 RMK A01 T00151014  RH  081%=      5-min Rain = 0
KVP1 180512Z 23007KT 02/M01 A3007 RMK A01 T00151014  RH  081%=      5-min Rain = 0
KVP1 180513Z 23007KT 02/M01 A3007 RMK A01 T00151014  RH  081%=      5-min Rain = 0
KVP1 180514Z 23007KT 02/M01 A3007 RMK A01 T00151014  RH  081%=      5-min Rain = 0
KVP1 180515Z 23007KT 02/M02 A3007 RMK A01 T00151015  RH  081%=      5-min Rain = 0
KVP1 180516Z 23007KT 02/M02 A3007 RMK A01 T00151015  RH  081%=      5-min Rain = 0
KVP1 180517Z 23008KT 01/M02 A3007 RMK A01 T00141015  RH  081%=      5-min Rain = 0
KVP1 180518Z 23008KT 01/M02 A3007 RMK A01 T00141015  RH  081%=      5-min Rain = 0
KVP1 180519Z 23008KT 01/M02 A3007 RMK A01 T00141016  RH  081%=      5-min Rain = 0
KVP1 180520Z 23007KT 01/M02 A3007 RMK A01 T00131016  RH  081%=      5-min Rain = 0
KVP1 180521Z 23007KT 01/M02 A3007 RMK A01 T00131017  RH  081%=      5-min Rain = 0
KVP1 180522Z 23007KT 01/M02 A3007 RMK A01 T00121017  RH  081%=      5-min Rain = 0
KVP1 180523Z 23007KT 01/M02 A3007 RMK A01 T00121017  RH  081%=      5-min Rain = 0
KVP1 180524Z 23008KT 01/M02 A3007 RMK A01 T00121017  RH  081%=      5-min Rain = 0
KVP1 180525Z 23008KT 01/M02 A3007 RMK A01 T00121017  RH  081%=      5-min Rain = 0
KVP1 180526Z 23008KT 01/M02 A3007 RMK A01 T00111018  RH  081%=      5-min Rain = 0
KVP1 180527Z 23008KT 01/M02 A3007 RMK A01 T00101019  RH  081%=      5-min Rain = 0
KVP1 180528Z 23008KT 01/M02 A3007 RMK A01 T00091019  RH  081%=      5-min Rain = 0
KVP1 180529Z 23008KT 01/M02 A3007 RMK A01 T00081020  RH  081%=      5-min Rain = 0
KVP1 180530Z 23008KT 01/M02 A3006 RMK A01 T00081020  RH  082%=      5-min Rain = 0
KVP1 180531Z 23008KT 01/M02 A3006 RMK A01 T00071020  RH  082%=      5-min Rain = 0
KVP1 180532Z 23008KT 01/M02 A3006 RMK A01 T00071020  RH  083%=      5-min Rain = 0
KVP1 180533Z 23008KT 01/M02 A3006 RMK A01 T00071019  RH  083%=      5-min Rain = 0
KVP1 180534Z 23008KT 01/M02 A3006 RMK A01 T00061019  RH  083%=      5-min Rain = 0
KVP1 180535Z 23008KT 01/M02 A3006 RMK A01 T00071018  RH  083%=      5-min Rain = 0
KVP1 180536Z 23008KT 01/M02 A3006 RMK A01 T00081017  RH  084%=      5-min Rain = 0
KVP1 180537Z 23008KT 01/M02 A3006 RMK A01 T00091016  RH  084%=      5-min Rain = 0
KVP1 180538Z 23008KT 01/M01 A3006 RMK A01 T00111014  RH  083%=      5-min Rain = 0
KVP1 180539Z 23008KT 01/M01 A3006 RMK A01 T00121013  RH  083%=      5-min Rain = 0
KVP1 180540Z 24008KT 01/M01 A3006 RMK A01 T00141012  RH  083%=      5-min Rain = 0
KVP1 180541Z 24008KT 02/M01 A3006 RMK A01 T00151012  RH  083%=      5-min Rain = 0
KVP1 180542Z 23009KT 02/M01 A3006 RMK A01 T00161011  RH  082%=      5-min Rain = 0
KVP1 180543Z 23008KT 02/M01 A3006 RMK A01 T00171010  RH  082%=      5-min Rain = 0
KVP1 180544Z 24008KT 02/M01 A3006 RMK A01 T00191009  RH  082%=      5-min Rain = 0
KVP1 180545Z 24008KT 02/M01 A3006 RMK A01 T00201009  RH  081%=      5-min Rain = 0
KVP1 180546Z 24008KT 02/M01 A3006 RMK A01 T00211008  RH  081%=      5-min Rain = 0
KVP1 180547Z 24008KT 02/M01 A3006 RMK A01 T00231008  RH  080%=      5-min Rain = 0
KVP1 180548Z 24008KT 02/M01 A3006 RMK A01 T00241008  RH  080%=      5-min Rain = 0
KVP1 180549Z 23008KT 02/M01 A3006 RMK A01 T00241008  RH  079%=      5-min Rain = 0
KVP1 180550Z 24008KT 02/M01 A3006 RMK A01 T00241008  RH  079%=      5-min Rain = 0
KVP1 180551Z 24008KT 03/M01 A3006 RMK A01 T00251008  RH  079%=      5-min Rain = 0
KVP1 180552Z 23008KT 03/M01 A3006 RMK A01 T00251008  RH  079%=      5-min Rain = 0
KVP1 180553Z 23008KT 03/M01 A3006 RMK A01 T00261008  RH  079%=      5-min Rain = 0
KVP1 180554Z 23008KT 03/M01 A3005 RMK A01 T00261008  RH  078%=      5-min Rain = 0
KVP1 180555Z 24009KT 03/M01 A3005 RMK A01 T00261008  RH  078%=      5-min Rain = 0
KVP1 180556Z 24009KT 03/M01 A3005 RMK A01 T00261009  RH  078%=      5-min Rain = 0
KVP1 180557Z 23008KT 03/M01 A3005 RMK A01 T00261009  RH  078%=      5-min Rain = 0
KVP1 180558Z 24009KT 03/M01 A3005 RMK A01 T00261009  RH  078%=      5-min Rain = 0
KVP1 180559Z 24009KT 03/M01 A3005 RMK A01 T00251010  RH  078%=      5-min Rain = 0

Page generated in 0.0708 seconds.